<?xml version="1.0" encoding="UTF-8" standalone="no" ?>
<gpx xmlns="http://www.topografix.com/GPX/1/1" xmlns:xsi="http://www.w3.org/2001/XMLSchema-instance" xsi:schemaLocation="http://www.topografix.com/GPX/1/1 http://www.topografix.com/GPX/1/1/gpx.xsd" version="1.1" creator="VisuGPX - https://www.visugpx.com">
  <metadata>
    <name>07 - Taller - Saint Paul Les Dax</name>
    <desc><![CDATA[Voie de Tours  - Taller - Saint Paul Les Dax]]></desc>
  </metadata>
  <trk>
    <name><![CDATA[07 - Taller - Saint Paul Les Dax]]></name>
    <trkseg>
      <trkpt lat="43.87271" lon="-1.072">
        <ele>81</ele>
      </trkpt>
      <trkpt lat="43.87268" lon="-1.07223">
        <ele>81</ele>
      </trkpt>
      <trkpt lat="43.87266" lon="-1.07238">
        <ele>86.18</ele>
        <time>2026-05-01T07:47:20Z</time>
      </trkpt>
      <trkpt lat="43.87256" lon="-1.07244">
        <ele>81</ele>
      </trkpt>
      <trkpt lat="43.87249" lon="-1.07239">
        <ele>81</ele>
      </trkpt>
      <trkpt lat="43.87244" lon="-1.07234">
        <ele>80.8</ele>
      </trkpt>
      <trkpt lat="43.87235" lon="-1.07222">
        <ele>86.18</ele>
        <time>2026-05-01T07:47:35Z</time>
      </trkpt>
      <trkpt lat="43.87233" lon="-1.0722">
        <ele>87.14</ele>
        <time>2026-05-01T07:47:59Z</time>
      </trkpt>
      <trkpt lat="43.8723" lon="-1.07217">
        <ele>87.14</ele>
        <time>2026-05-01T07:48:22Z</time>
      </trkpt>
      <trkpt lat="43.87226" lon="-1.07212">
        <ele>87.14</ele>
        <time>2026-05-01T07:48:27Z</time>
      </trkpt>
      <trkpt lat="43.87214" lon="-1.07197">
        <ele>85.69</ele>
        <time>2026-05-01T07:48:42Z</time>
      </trkpt>
      <trkpt lat="43.87206" lon="-1.07186">
        <ele>85.69</ele>
        <time>2026-05-01T07:48:53Z</time>
      </trkpt>
      <trkpt lat="43.8719" lon="-1.07169">
        <ele>84.73</ele>
        <time>2026-05-01T07:49:11Z</time>
      </trkpt>
      <trkpt lat="43.87178" lon="-1.07154">
        <ele>84.73</ele>
        <time>2026-05-01T07:49:29Z</time>
      </trkpt>
      <trkpt lat="43.87164" lon="-1.07138">
        <ele>84.73</ele>
        <time>2026-05-01T07:49:45Z</time>
      </trkpt>
      <trkpt lat="43.87145" lon="-1.07125">
        <ele>84.73</ele>
        <time>2026-05-01T07:50:03Z</time>
      </trkpt>
      <trkpt lat="43.87139" lon="-1.07123">
        <ele>84.73</ele>
        <time>2026-05-01T07:50:04Z</time>
      </trkpt>
      <trkpt lat="43.87125" lon="-1.07119">
        <ele>84.25</ele>
        <time>2026-05-01T07:50:21Z</time>
      </trkpt>
      <trkpt lat="43.87108" lon="-1.07114">
        <ele>83.77</ele>
        <time>2026-05-01T07:50:38Z</time>
      </trkpt>
      <trkpt lat="43.871" lon="-1.07113">
        <ele>83.29</ele>
        <time>2026-05-01T07:50:55Z</time>
      </trkpt>
      <trkpt lat="43.87096" lon="-1.07112">
        <ele>83.29</ele>
        <time>2026-05-01T07:51:19Z</time>
      </trkpt>
      <trkpt lat="43.87091" lon="-1.07111">
        <ele>83.29</ele>
        <time>2026-05-01T07:51:24Z</time>
      </trkpt>
      <trkpt lat="43.87084" lon="-1.07109">
        <ele>81.85</ele>
        <time>2026-05-01T07:51:40Z</time>
      </trkpt>
      <trkpt lat="43.87063" lon="-1.07091">
        <ele>80.89</ele>
        <time>2026-05-01T07:51:55Z</time>
      </trkpt>
      <trkpt lat="43.87051" lon="-1.07076">
        <ele>79.93</ele>
        <time>2026-05-01T07:52:11Z</time>
      </trkpt>
      <trkpt lat="43.87036" lon="-1.07057">
        <ele>78.97</ele>
        <time>2026-05-01T07:52:28Z</time>
      </trkpt>
      <trkpt lat="43.87025" lon="-1.07043">
        <ele>78.48</ele>
        <time>2026-05-01T07:52:42Z</time>
      </trkpt>
      <trkpt lat="43.87012" lon="-1.07026">
        <ele>78</ele>
        <time>2026-05-01T07:52:59Z</time>
      </trkpt>
      <trkpt lat="43.87009" lon="-1.07023">
        <ele>78</ele>
        <time>2026-05-01T07:53:02Z</time>
      </trkpt>
      <trkpt lat="43.87003" lon="-1.07015">
        <ele>77.52</ele>
        <time>2026-05-01T07:53:09Z</time>
      </trkpt>
      <trkpt lat="43.8699" lon="-1.07001">
        <ele>77.04</ele>
        <time>2026-05-01T07:53:28Z</time>
      </trkpt>
      <trkpt lat="43.86987" lon="-1.06999">
        <ele>77.04</ele>
        <time>2026-05-01T07:53:32Z</time>
      </trkpt>
      <trkpt lat="43.86971" lon="-1.06984">
        <ele>77.04</ele>
        <time>2026-05-01T07:53:50Z</time>
      </trkpt>
      <trkpt lat="43.86957" lon="-1.06965">
        <ele>77.04</ele>
        <time>2026-05-01T07:54:08Z</time>
      </trkpt>
      <trkpt lat="43.86944" lon="-1.06943">
        <ele>77.04</ele>
        <time>2026-05-01T07:54:26Z</time>
      </trkpt>
      <trkpt lat="43.8694" lon="-1.06938">
        <ele>78</ele>
        <time>2026-05-01T07:54:31Z</time>
      </trkpt>
      <trkpt lat="43.86939" lon="-1.06936">
        <ele>78</ele>
        <time>2026-05-01T07:54:33Z</time>
      </trkpt>
      <trkpt lat="43.86921" lon="-1.06922">
        <ele>79.45</ele>
        <time>2026-05-01T07:54:52Z</time>
      </trkpt>
      <trkpt lat="43.86908" lon="-1.06916">
        <ele>79.93</ele>
        <time>2026-05-01T07:55:08Z</time>
      </trkpt>
      <trkpt lat="43.86895" lon="-1.06911">
        <ele>80.41</ele>
        <time>2026-05-01T07:55:21Z</time>
      </trkpt>
      <trkpt lat="43.86878" lon="-1.06907">
        <ele>81.37</ele>
        <time>2026-05-01T07:55:36Z</time>
      </trkpt>
      <trkpt lat="43.86866" lon="-1.06903">
        <ele>81.85</ele>
        <time>2026-05-01T07:55:51Z</time>
      </trkpt>
      <trkpt lat="43.86862" lon="-1.06898">
        <ele>82.33</ele>
        <time>2026-05-01T07:55:57Z</time>
      </trkpt>
      <trkpt lat="43.86859" lon="-1.06883">
        <ele>82.81</ele>
        <time>2026-05-01T07:56:06Z</time>
      </trkpt>
      <trkpt lat="43.86857" lon="-1.06853">
        <ele>83.77</ele>
        <time>2026-05-01T07:56:25Z</time>
      </trkpt>
      <trkpt lat="43.86852" lon="-1.0683">
        <ele>83.77</ele>
        <time>2026-05-01T07:56:40Z</time>
      </trkpt>
      <trkpt lat="43.86843" lon="-1.06802">
        <ele>84.25</ele>
        <time>2026-05-01T07:56:59Z</time>
      </trkpt>
      <trkpt lat="43.86832" lon="-1.0677">
        <ele>84.25</ele>
        <time>2026-05-01T07:57:22Z</time>
      </trkpt>
      <trkpt lat="43.86829" lon="-1.0674">
        <ele>83.77</ele>
        <time>2026-05-01T07:57:41Z</time>
      </trkpt>
      <trkpt lat="43.8682" lon="-1.06705">
        <ele>83.77</ele>
        <time>2026-05-01T07:58:04Z</time>
      </trkpt>
      <trkpt lat="43.86811" lon="-1.06679">
        <ele>83.77</ele>
        <time>2026-05-01T07:58:22Z</time>
      </trkpt>
      <trkpt lat="43.86801" lon="-1.06658">
        <ele>83.77</ele>
        <time>2026-05-01T07:58:38Z</time>
      </trkpt>
      <trkpt lat="43.8679" lon="-1.0663">
        <ele>83.77</ele>
        <time>2026-05-01T07:58:57Z</time>
      </trkpt>
      <trkpt lat="43.86779" lon="-1.06614">
        <ele>83.77</ele>
        <time>2026-05-01T07:59:13Z</time>
      </trkpt>
      <trkpt lat="43.86775" lon="-1.06609">
        <ele>82.81</ele>
        <time>2026-05-01T08:02:02Z</time>
      </trkpt>
      <trkpt lat="43.86771" lon="-1.06607">
        <ele>82.81</ele>
        <time>2026-05-01T08:02:48Z</time>
      </trkpt>
      <trkpt lat="43.8676" lon="-1.06599">
        <ele>82.81</ele>
        <time>2026-05-01T08:03:07Z</time>
      </trkpt>
      <trkpt lat="43.86757" lon="-1.06595">
        <ele>82.81</ele>
        <time>2026-05-01T08:03:22Z</time>
      </trkpt>
      <trkpt lat="43.86748" lon="-1.06575">
        <ele>82.81</ele>
        <time>2026-05-01T08:03:36Z</time>
      </trkpt>
      <trkpt lat="43.86737" lon="-1.06553">
        <ele>83.29</ele>
        <time>2026-05-01T08:03:53Z</time>
      </trkpt>
      <trkpt lat="43.86721" lon="-1.06528">
        <ele>83.29</ele>
        <time>2026-05-01T08:04:12Z</time>
      </trkpt>
      <trkpt lat="43.86708" lon="-1.0651">
        <ele>84.25</ele>
        <time>2026-05-01T08:07:09Z</time>
      </trkpt>
      <trkpt lat="43.86704" lon="-1.06506">
        <ele>84.73</ele>
        <time>2026-05-01T08:10:20Z</time>
      </trkpt>
      <trkpt lat="43.86697" lon="-1.06493">
        <ele>84.73</ele>
        <time>2026-05-01T08:10:35Z</time>
      </trkpt>
      <trkpt lat="43.8668" lon="-1.06476">
        <ele>84.73</ele>
        <time>2026-05-01T08:10:53Z</time>
      </trkpt>
      <trkpt lat="43.86669" lon="-1.06461">
        <ele>85.69</ele>
        <time>2026-05-01T08:11:11Z</time>
      </trkpt>
      <trkpt lat="43.86663" lon="-1.06453">
        <ele>85.69</ele>
        <time>2026-05-01T08:11:28Z</time>
      </trkpt>
      <trkpt lat="43.8666" lon="-1.06447">
        <ele>86.18</ele>
        <time>2026-05-01T08:11:47Z</time>
      </trkpt>
      <trkpt lat="43.86653" lon="-1.06444">
        <ele>86.18</ele>
        <time>2026-05-01T08:12:16Z</time>
      </trkpt>
      <trkpt lat="43.86658" lon="-1.06448">
        <ele>86.18</ele>
        <time>2026-05-01T08:12:29Z</time>
      </trkpt>
      <trkpt lat="43.86649" lon="-1.06442">
        <ele>86.18</ele>
        <time>2026-05-01T08:12:44Z</time>
      </trkpt>
      <trkpt lat="43.86633" lon="-1.06433">
        <ele>86.18</ele>
        <time>2026-05-01T08:13:03Z</time>
      </trkpt>
      <trkpt lat="43.86615" lon="-1.06421">
        <ele>86.18</ele>
        <time>2026-05-01T08:13:18Z</time>
      </trkpt>
      <trkpt lat="43.86599" lon="-1.0641">
        <ele>86.18</ele>
        <time>2026-05-01T08:13:36Z</time>
      </trkpt>
      <trkpt lat="43.86587" lon="-1.06402">
        <ele>86.18</ele>
        <time>2026-05-01T08:13:53Z</time>
      </trkpt>
      <trkpt lat="43.86572" lon="-1.06393">
        <ele>86.18</ele>
        <time>2026-05-01T08:14:16Z</time>
      </trkpt>
      <trkpt lat="43.86569" lon="-1.06393">
        <ele>86.18</ele>
        <time>2026-05-01T08:14:44Z</time>
      </trkpt>
      <trkpt lat="43.86564" lon="-1.06396">
        <ele>86.66</ele>
        <time>2026-05-01T08:15:22Z</time>
      </trkpt>
      <trkpt lat="43.86563" lon="-1.06393">
        <ele>86.66</ele>
        <time>2026-05-01T08:15:54Z</time>
      </trkpt>
      <trkpt lat="43.86556" lon="-1.06386">
        <ele>87.14</ele>
        <time>2026-05-01T08:16:13Z</time>
      </trkpt>
      <trkpt lat="43.86549" lon="-1.06378">
        <ele>87.14</ele>
        <time>2026-05-01T08:16:29Z</time>
      </trkpt>
      <trkpt lat="43.86533" lon="-1.06368">
        <ele>87.14</ele>
        <time>2026-05-01T08:16:46Z</time>
      </trkpt>
      <trkpt lat="43.86518" lon="-1.06361">
        <ele>87.14</ele>
        <time>2026-05-01T08:17:01Z</time>
      </trkpt>
      <trkpt lat="43.86505" lon="-1.06341">
        <ele>87.14</ele>
        <time>2026-05-01T08:17:17Z</time>
      </trkpt>
      <trkpt lat="43.8649" lon="-1.06322">
        <ele>87.14</ele>
        <time>2026-05-01T08:17:37Z</time>
      </trkpt>
      <trkpt lat="43.86489" lon="-1.0632">
        <ele>87.62</ele>
        <time>2026-05-01T08:17:38Z</time>
      </trkpt>
      <trkpt lat="43.86478" lon="-1.0629">
        <ele>87.62</ele>
        <time>2026-05-01T08:17:58Z</time>
      </trkpt>
      <trkpt lat="43.86475" lon="-1.06274">
        <ele>87.14</ele>
        <time>2026-05-01T08:18:13Z</time>
      </trkpt>
      <trkpt lat="43.8647" lon="-1.06255">
        <ele>87.14</ele>
        <time>2026-05-01T08:18:32Z</time>
      </trkpt>
      <trkpt lat="43.86462" lon="-1.06222">
        <ele>87.14</ele>
        <time>2026-05-01T08:18:53Z</time>
      </trkpt>
      <trkpt lat="43.86457" lon="-1.06191">
        <ele>87.14</ele>
        <time>2026-05-01T08:19:13Z</time>
      </trkpt>
      <trkpt lat="43.86451" lon="-1.06158">
        <ele>87.14</ele>
        <time>2026-05-01T08:19:33Z</time>
      </trkpt>
      <trkpt lat="43.86446" lon="-1.06124">
        <ele>87.14</ele>
        <time>2026-05-01T08:19:54Z</time>
      </trkpt>
      <trkpt lat="43.86441" lon="-1.06088">
        <ele>86.66</ele>
        <time>2026-05-01T08:20:17Z</time>
      </trkpt>
      <trkpt lat="43.86433" lon="-1.06055">
        <ele>86.66</ele>
        <time>2026-05-01T08:20:38Z</time>
      </trkpt>
      <trkpt lat="43.86429" lon="-1.06025">
        <ele>86.66</ele>
        <time>2026-05-01T08:20:58Z</time>
      </trkpt>
      <trkpt lat="43.86421" lon="-1.05988">
        <ele>86.66</ele>
        <time>2026-05-01T08:21:21Z</time>
      </trkpt>
      <trkpt lat="43.86417" lon="-1.05958">
        <ele>86.66</ele>
        <time>2026-05-01T08:21:41Z</time>
      </trkpt>
      <trkpt lat="43.86411" lon="-1.05927">
        <ele>86.66</ele>
        <time>2026-05-01T08:22:01Z</time>
      </trkpt>
      <trkpt lat="43.86406" lon="-1.05898">
        <ele>85.21</ele>
        <time>2026-05-01T08:22:20Z</time>
      </trkpt>
      <trkpt lat="43.86401" lon="-1.05865">
        <ele>85.21</ele>
        <time>2026-05-01T08:22:42Z</time>
      </trkpt>
      <trkpt lat="43.86402" lon="-1.05832">
        <ele>85.21</ele>
        <time>2026-05-01T08:23:03Z</time>
      </trkpt>
      <trkpt lat="43.86405" lon="-1.05808">
        <ele>85.21</ele>
        <time>2026-05-01T08:23:20Z</time>
      </trkpt>
      <trkpt lat="43.86408" lon="-1.05779">
        <ele>84.73</ele>
        <time>2026-05-01T08:23:39Z</time>
      </trkpt>
      <trkpt lat="43.86409" lon="-1.05748">
        <ele>84.73</ele>
        <time>2026-05-01T08:23:58Z</time>
      </trkpt>
      <trkpt lat="43.86413" lon="-1.05712">
        <ele>84.73</ele>
        <time>2026-05-01T08:24:21Z</time>
      </trkpt>
      <trkpt lat="43.86416" lon="-1.05685">
        <ele>84.73</ele>
        <time>2026-05-01T08:24:38Z</time>
      </trkpt>
      <trkpt lat="43.86419" lon="-1.05657">
        <ele>84.73</ele>
        <time>2026-05-01T08:24:56Z</time>
      </trkpt>
      <trkpt lat="43.86421" lon="-1.05632">
        <ele>84.25</ele>
        <time>2026-05-01T08:25:12Z</time>
      </trkpt>
      <trkpt lat="43.86423" lon="-1.05606">
        <ele>84.25</ele>
        <time>2026-05-01T08:25:28Z</time>
      </trkpt>
      <trkpt lat="43.86426" lon="-1.05578">
        <ele>83.77</ele>
        <time>2026-05-01T08:25:46Z</time>
      </trkpt>
      <trkpt lat="43.8643" lon="-1.05545">
        <ele>83.77</ele>
        <time>2026-05-01T08:26:06Z</time>
      </trkpt>
      <trkpt lat="43.86437" lon="-1.0552">
        <ele>83.29</ele>
        <time>2026-05-01T08:26:48Z</time>
      </trkpt>
      <trkpt lat="43.86435" lon="-1.05524">
        <ele>82.81</ele>
        <time>2026-05-01T08:27:43Z</time>
      </trkpt>
      <trkpt lat="43.86437" lon="-1.05519">
        <ele>82.33</ele>
        <time>2026-05-01T08:28:45Z</time>
      </trkpt>
      <trkpt lat="43.8644" lon="-1.05515">
        <ele>82.33</ele>
        <time>2026-05-01T08:29:32Z</time>
      </trkpt>
      <trkpt lat="43.8644" lon="-1.05513">
        <ele>82.33</ele>
        <time>2026-05-01T08:29:34Z</time>
      </trkpt>
      <trkpt lat="43.86444" lon="-1.05483">
        <ele>82.33</ele>
        <time>2026-05-01T08:29:55Z</time>
      </trkpt>
      <trkpt lat="43.86455" lon="-1.05448">
        <ele>82.33</ele>
        <time>2026-05-01T08:30:17Z</time>
      </trkpt>
      <trkpt lat="43.86462" lon="-1.0542">
        <ele>82.33</ele>
        <time>2026-05-01T08:30:35Z</time>
      </trkpt>
      <trkpt lat="43.86471" lon="-1.05394">
        <ele>82.33</ele>
        <time>2026-05-01T08:30:52Z</time>
      </trkpt>
      <trkpt lat="43.86471" lon="-1.05391">
        <ele>82.33</ele>
        <time>2026-05-01T08:30:54Z</time>
      </trkpt>
      <trkpt lat="43.8648" lon="-1.05373">
        <ele>82.33</ele>
        <time>2026-05-01T08:31:09Z</time>
      </trkpt>
      <trkpt lat="43.86491" lon="-1.05354">
        <ele>82.33</ele>
        <time>2026-05-01T08:31:27Z</time>
      </trkpt>
      <trkpt lat="43.86491" lon="-1.05352">
        <ele>82.33</ele>
        <time>2026-05-01T08:31:28Z</time>
      </trkpt>
      <trkpt lat="43.86487" lon="-1.05335">
        <ele>81.85</ele>
        <time>2026-05-01T08:31:39Z</time>
      </trkpt>
      <trkpt lat="43.86471" lon="-1.05334">
        <ele>81.85</ele>
        <time>2026-05-01T08:31:54Z</time>
      </trkpt>
      <trkpt lat="43.8645" lon="-1.05335">
        <ele>81.85</ele>
        <time>2026-05-01T08:32:10Z</time>
      </trkpt>
      <trkpt lat="43.86431" lon="-1.05335">
        <ele>81.85</ele>
        <time>2026-05-01T08:32:26Z</time>
      </trkpt>
      <trkpt lat="43.86407" lon="-1.05332">
        <ele>81.85</ele>
        <time>2026-05-01T08:32:46Z</time>
      </trkpt>
      <trkpt lat="43.86386" lon="-1.05331">
        <ele>81.37</ele>
        <time>2026-05-01T08:33:03Z</time>
      </trkpt>
      <trkpt lat="43.86365" lon="-1.05329">
        <ele>82.81</ele>
        <time>2026-05-01T08:33:21Z</time>
      </trkpt>
      <trkpt lat="43.86346" lon="-1.05329">
        <ele>82.81</ele>
        <time>2026-05-01T08:33:39Z</time>
      </trkpt>
      <trkpt lat="43.86345" lon="-1.05329">
        <ele>82.81</ele>
        <time>2026-05-01T08:33:40Z</time>
      </trkpt>
      <trkpt lat="43.86327" lon="-1.05331">
        <ele>83.29</ele>
        <time>2026-05-01T08:33:54Z</time>
      </trkpt>
      <trkpt lat="43.86304" lon="-1.0533">
        <ele>83.29</ele>
        <time>2026-05-01T08:34:13Z</time>
      </trkpt>
      <trkpt lat="43.86277" lon="-1.05331">
        <ele>83.29</ele>
        <time>2026-05-01T08:34:34Z</time>
      </trkpt>
      <trkpt lat="43.86256" lon="-1.05334">
        <ele>83.29</ele>
        <time>2026-05-01T08:34:51Z</time>
      </trkpt>
      <trkpt lat="43.86242" lon="-1.05338">
        <ele>83.29</ele>
        <time>2026-05-01T08:35:03Z</time>
      </trkpt>
      <trkpt lat="43.86239" lon="-1.0534">
        <ele>83.29</ele>
        <time>2026-05-01T08:35:05Z</time>
      </trkpt>
      <trkpt lat="43.86216" lon="-1.05342">
        <ele>83.29</ele>
        <time>2026-05-01T08:35:25Z</time>
      </trkpt>
      <trkpt lat="43.86194" lon="-1.05345">
        <ele>83.29</ele>
        <time>2026-05-01T08:35:43Z</time>
      </trkpt>
      <trkpt lat="43.86174" lon="-1.05344">
        <ele>83.29</ele>
        <time>2026-05-01T08:36:01Z</time>
      </trkpt>
      <trkpt lat="43.86152" lon="-1.05345">
        <ele>83.29</ele>
        <time>2026-05-01T08:36:19Z</time>
      </trkpt>
      <trkpt lat="43.86132" lon="-1.05347">
        <ele>83.29</ele>
        <time>2026-05-01T08:36:37Z</time>
      </trkpt>
      <trkpt lat="43.86111" lon="-1.05346">
        <ele>83.29</ele>
        <time>2026-05-01T08:36:54Z</time>
      </trkpt>
      <trkpt lat="43.86091" lon="-1.05343">
        <ele>83.29</ele>
        <time>2026-05-01T08:37:11Z</time>
      </trkpt>
      <trkpt lat="43.86068" lon="-1.05343">
        <ele>83.29</ele>
        <time>2026-05-01T08:37:31Z</time>
      </trkpt>
      <trkpt lat="43.86046" lon="-1.05341">
        <ele>83.29</ele>
        <time>2026-05-01T08:37:49Z</time>
      </trkpt>
      <trkpt lat="43.8604" lon="-1.0534">
        <ele>83.29</ele>
        <time>2026-05-01T08:37:54Z</time>
      </trkpt>
      <trkpt lat="43.8603" lon="-1.05343">
        <ele>83.29</ele>
        <time>2026-05-01T08:38:02Z</time>
      </trkpt>
      <trkpt lat="43.86005" lon="-1.05344">
        <ele>83.29</ele>
        <time>2026-05-01T08:38:23Z</time>
      </trkpt>
      <trkpt lat="43.8598" lon="-1.05344">
        <ele>83.29</ele>
        <time>2026-05-01T08:38:42Z</time>
      </trkpt>
      <trkpt lat="43.8596" lon="-1.05341">
        <ele>83.29</ele>
        <time>2026-05-01T08:39:00Z</time>
      </trkpt>
      <trkpt lat="43.8594" lon="-1.05344">
        <ele>83.29</ele>
        <time>2026-05-01T08:39:17Z</time>
      </trkpt>
      <trkpt lat="43.85921" lon="-1.05344">
        <ele>83.29</ele>
        <time>2026-05-01T08:39:34Z</time>
      </trkpt>
      <trkpt lat="43.85895" lon="-1.05341">
        <ele>83.29</ele>
        <time>2026-05-01T08:39:55Z</time>
      </trkpt>
      <trkpt lat="43.85874" lon="-1.05345">
        <ele>83.77</ele>
        <time>2026-05-01T08:40:12Z</time>
      </trkpt>
      <trkpt lat="43.85852" lon="-1.05344">
        <ele>83.77</ele>
        <time>2026-05-01T08:40:31Z</time>
      </trkpt>
      <trkpt lat="43.85828" lon="-1.05343">
        <ele>83.77</ele>
        <time>2026-05-01T08:40:51Z</time>
      </trkpt>
      <trkpt lat="43.85805" lon="-1.05342">
        <ele>83.77</ele>
        <time>2026-05-01T08:41:11Z</time>
      </trkpt>
      <trkpt lat="43.85777" lon="-1.05345">
        <ele>83.77</ele>
        <time>2026-05-01T08:41:32Z</time>
      </trkpt>
      <trkpt lat="43.85755" lon="-1.05343">
        <ele>83.77</ele>
        <time>2026-05-01T08:41:51Z</time>
      </trkpt>
      <trkpt lat="43.85731" lon="-1.05344">
        <ele>83.77</ele>
        <time>2026-05-01T08:42:10Z</time>
      </trkpt>
      <trkpt lat="43.85709" lon="-1.05344">
        <ele>83.77</ele>
        <time>2026-05-01T08:42:28Z</time>
      </trkpt>
      <trkpt lat="43.85694" lon="-1.05342">
        <ele>83.77</ele>
        <time>2026-05-01T08:42:46Z</time>
      </trkpt>
      <trkpt lat="43.85679" lon="-1.05342">
        <ele>83.29</ele>
        <time>2026-05-01T08:45:40Z</time>
      </trkpt>
      <trkpt lat="43.85654" lon="-1.05344">
        <ele>83.29</ele>
        <time>2026-05-01T08:45:57Z</time>
      </trkpt>
      <trkpt lat="43.85644" lon="-1.05344">
        <ele>83.29</ele>
        <time>2026-05-01T08:46:06Z</time>
      </trkpt>
      <trkpt lat="43.85626" lon="-1.05344">
        <ele>82.81</ele>
        <time>2026-05-01T08:46:22Z</time>
      </trkpt>
      <trkpt lat="43.85601" lon="-1.05346">
        <ele>83.29</ele>
        <time>2026-05-01T08:46:43Z</time>
      </trkpt>
      <trkpt lat="43.85581" lon="-1.05347">
        <ele>83.29</ele>
        <time>2026-05-01T08:47:01Z</time>
      </trkpt>
      <trkpt lat="43.85559" lon="-1.05349">
        <ele>83.29</ele>
        <time>2026-05-01T08:47:19Z</time>
      </trkpt>
      <trkpt lat="43.85536" lon="-1.05349">
        <ele>83.29</ele>
        <time>2026-05-01T08:47:38Z</time>
      </trkpt>
      <trkpt lat="43.8552" lon="-1.0535">
        <ele>83.29</ele>
        <time>2026-05-01T08:47:52Z</time>
      </trkpt>
      <trkpt lat="43.85496" lon="-1.0535">
        <ele>83.29</ele>
        <time>2026-05-01T08:48:10Z</time>
      </trkpt>
      <trkpt lat="43.85476" lon="-1.05349">
        <ele>83.29</ele>
        <time>2026-05-01T08:48:27Z</time>
      </trkpt>
      <trkpt lat="43.85464" lon="-1.0535">
        <ele>83.29</ele>
        <time>2026-05-01T08:48:38Z</time>
      </trkpt>
      <trkpt lat="43.85438" lon="-1.05346">
        <ele>83.29</ele>
        <time>2026-05-01T08:48:59Z</time>
      </trkpt>
      <trkpt lat="43.85418" lon="-1.05343">
        <ele>84.73</ele>
        <time>2026-05-01T08:49:17Z</time>
      </trkpt>
      <trkpt lat="43.85398" lon="-1.05346">
        <ele>84.73</ele>
        <time>2026-05-01T08:49:34Z</time>
      </trkpt>
      <trkpt lat="43.85378" lon="-1.05348">
        <ele>84.73</ele>
        <time>2026-05-01T08:49:51Z</time>
      </trkpt>
      <trkpt lat="43.85357" lon="-1.05348">
        <ele>85.21</ele>
        <time>2026-05-01T08:50:09Z</time>
      </trkpt>
      <trkpt lat="43.85338" lon="-1.05344">
        <ele>85.69</ele>
        <time>2026-05-01T08:50:26Z</time>
      </trkpt>
      <trkpt lat="43.85318" lon="-1.05343">
        <ele>85.69</ele>
        <time>2026-05-01T08:50:42Z</time>
      </trkpt>
      <trkpt lat="43.85291" lon="-1.05342">
        <ele>85.69</ele>
        <time>2026-05-01T08:51:04Z</time>
      </trkpt>
      <trkpt lat="43.8527" lon="-1.05341">
        <ele>85.69</ele>
        <time>2026-05-01T08:51:21Z</time>
      </trkpt>
      <trkpt lat="43.85248" lon="-1.05343">
        <ele>85.69</ele>
        <time>2026-05-01T08:51:41Z</time>
      </trkpt>
      <trkpt lat="43.85228" lon="-1.05345">
        <ele>85.69</ele>
        <time>2026-05-01T08:51:59Z</time>
      </trkpt>
      <trkpt lat="43.85207" lon="-1.05346">
        <ele>85.69</ele>
        <time>2026-05-01T08:52:16Z</time>
      </trkpt>
      <trkpt lat="43.85187" lon="-1.05345">
        <ele>85.69</ele>
        <time>2026-05-01T08:52:34Z</time>
      </trkpt>
      <trkpt lat="43.85165" lon="-1.05347">
        <ele>85.69</ele>
        <time>2026-05-01T08:52:53Z</time>
      </trkpt>
      <trkpt lat="43.85148" lon="-1.05347">
        <ele>85.69</ele>
        <time>2026-05-01T08:53:08Z</time>
      </trkpt>
      <trkpt lat="43.85122" lon="-1.05347">
        <ele>85.69</ele>
        <time>2026-05-01T08:53:29Z</time>
      </trkpt>
      <trkpt lat="43.85099" lon="-1.05344">
        <ele>85.69</ele>
        <time>2026-05-01T08:53:48Z</time>
      </trkpt>
      <trkpt lat="43.85072" lon="-1.05345">
        <ele>85.69</ele>
        <time>2026-05-01T08:54:10Z</time>
      </trkpt>
      <trkpt lat="43.85054" lon="-1.05344">
        <ele>84.73</ele>
        <time>2026-05-01T08:54:25Z</time>
      </trkpt>
      <trkpt lat="43.85036" lon="-1.05348">
        <ele>84.73</ele>
        <time>2026-05-01T08:54:41Z</time>
      </trkpt>
      <trkpt lat="43.85014" lon="-1.05351">
        <ele>84.73</ele>
        <time>2026-05-01T08:54:59Z</time>
      </trkpt>
      <trkpt lat="43.8499" lon="-1.05349">
        <ele>84.73</ele>
        <time>2026-05-01T08:55:17Z</time>
      </trkpt>
      <trkpt lat="43.84971" lon="-1.0535">
        <ele>84.73</ele>
        <time>2026-05-01T08:55:34Z</time>
      </trkpt>
      <trkpt lat="43.84951" lon="-1.05348">
        <ele>84.73</ele>
        <time>2026-05-01T08:55:51Z</time>
      </trkpt>
      <trkpt lat="43.84929" lon="-1.05349">
        <ele>84.73</ele>
        <time>2026-05-01T08:56:09Z</time>
      </trkpt>
      <trkpt lat="43.84906" lon="-1.05347">
        <ele>84.73</ele>
        <time>2026-05-01T08:56:27Z</time>
      </trkpt>
      <trkpt lat="43.84883" lon="-1.05345">
        <ele>85.21</ele>
        <time>2026-05-01T08:56:47Z</time>
      </trkpt>
      <trkpt lat="43.84858" lon="-1.05346">
        <ele>85.21</ele>
        <time>2026-05-01T08:57:06Z</time>
      </trkpt>
      <trkpt lat="43.84833" lon="-1.0535">
        <ele>85.21</ele>
        <time>2026-05-01T08:57:27Z</time>
      </trkpt>
      <trkpt lat="43.8481" lon="-1.05351">
        <ele>84.73</ele>
        <time>2026-05-01T08:57:47Z</time>
      </trkpt>
      <trkpt lat="43.84794" lon="-1.0535">
        <ele>84.73</ele>
        <time>2026-05-01T08:58:03Z</time>
      </trkpt>
      <trkpt lat="43.84767" lon="-1.05349">
        <ele>85.21</ele>
        <time>2026-05-01T08:58:24Z</time>
      </trkpt>
      <trkpt lat="43.84746" lon="-1.05346">
        <ele>84.73</ele>
        <time>2026-05-01T08:58:43Z</time>
      </trkpt>
      <trkpt lat="43.84728" lon="-1.05352">
        <ele>85.21</ele>
        <time>2026-05-01T08:59:00Z</time>
      </trkpt>
      <trkpt lat="43.84707" lon="-1.0535">
        <ele>85.21</ele>
        <time>2026-05-01T08:59:18Z</time>
      </trkpt>
      <trkpt lat="43.84689" lon="-1.05352">
        <ele>85.21</ele>
        <time>2026-05-01T08:59:32Z</time>
      </trkpt>
      <trkpt lat="43.84679" lon="-1.05353">
        <ele>85.21</ele>
        <time>2026-05-01T08:59:42Z</time>
      </trkpt>
      <trkpt lat="43.84651" lon="-1.0535">
        <ele>85.69</ele>
        <time>2026-05-01T09:00:00Z</time>
      </trkpt>
      <trkpt lat="43.8463" lon="-1.05349">
        <ele>85.69</ele>
        <time>2026-05-01T09:00:18Z</time>
      </trkpt>
      <trkpt lat="43.8461" lon="-1.05345">
        <ele>85.69</ele>
        <time>2026-05-01T09:00:35Z</time>
      </trkpt>
      <trkpt lat="43.8459" lon="-1.05347">
        <ele>86.18</ele>
        <time>2026-05-01T09:00:54Z</time>
      </trkpt>
      <trkpt lat="43.84574" lon="-1.05348">
        <ele>86.18</ele>
        <time>2026-05-01T09:01:24Z</time>
      </trkpt>
      <trkpt lat="43.84571" lon="-1.05348">
        <ele>85.69</ele>
        <time>2026-05-01T09:03:54Z</time>
      </trkpt>
      <trkpt lat="43.84557" lon="-1.05346">
        <ele>85.69</ele>
        <time>2026-05-01T09:04:07Z</time>
      </trkpt>
      <trkpt lat="43.84554" lon="-1.05346">
        <ele>85.69</ele>
        <time>2026-05-01T09:04:11Z</time>
      </trkpt>
      <trkpt lat="43.84533" lon="-1.05347">
        <ele>85.69</ele>
        <time>2026-05-01T09:04:30Z</time>
      </trkpt>
      <trkpt lat="43.84508" lon="-1.05347">
        <ele>85.69</ele>
        <time>2026-05-01T09:04:50Z</time>
      </trkpt>
      <trkpt lat="43.84487" lon="-1.05347">
        <ele>85.69</ele>
        <time>2026-05-01T09:05:07Z</time>
      </trkpt>
      <trkpt lat="43.84473" lon="-1.05348">
        <ele>85.69</ele>
        <time>2026-05-01T09:05:21Z</time>
      </trkpt>
      <trkpt lat="43.84453" lon="-1.0535">
        <ele>85.69</ele>
        <time>2026-05-01T09:05:39Z</time>
      </trkpt>
      <trkpt lat="43.84433" lon="-1.05349">
        <ele>85.69</ele>
        <time>2026-05-01T09:05:57Z</time>
      </trkpt>
      <trkpt lat="43.84412" lon="-1.05352">
        <ele>85.69</ele>
        <time>2026-05-01T09:06:16Z</time>
      </trkpt>
      <trkpt lat="43.84392" lon="-1.05354">
        <ele>85.69</ele>
        <time>2026-05-01T09:06:33Z</time>
      </trkpt>
      <trkpt lat="43.84372" lon="-1.05355">
        <ele>85.21</ele>
        <time>2026-05-01T09:06:52Z</time>
      </trkpt>
      <trkpt lat="43.84353" lon="-1.05356">
        <ele>85.21</ele>
        <time>2026-05-01T09:07:08Z</time>
      </trkpt>
      <trkpt lat="43.84333" lon="-1.05357">
        <ele>85.21</ele>
        <time>2026-05-01T09:07:26Z</time>
      </trkpt>
      <trkpt lat="43.84315" lon="-1.05356">
        <ele>85.21</ele>
        <time>2026-05-01T09:07:41Z</time>
      </trkpt>
      <trkpt lat="43.84293" lon="-1.05359">
        <ele>85.21</ele>
        <time>2026-05-01T09:07:59Z</time>
      </trkpt>
      <trkpt lat="43.84272" lon="-1.05357">
        <ele>85.21</ele>
        <time>2026-05-01T09:08:15Z</time>
      </trkpt>
      <trkpt lat="43.84253" lon="-1.05357">
        <ele>85.21</ele>
        <time>2026-05-01T09:08:32Z</time>
      </trkpt>
      <trkpt lat="43.84233" lon="-1.05355">
        <ele>85.21</ele>
        <time>2026-05-01T09:08:49Z</time>
      </trkpt>
      <trkpt lat="43.84211" lon="-1.05345">
        <ele>85.21</ele>
        <time>2026-05-01T09:09:08Z</time>
      </trkpt>
      <trkpt lat="43.84199" lon="-1.0534">
        <ele>85.21</ele>
        <time>2026-05-01T09:09:21Z</time>
      </trkpt>
      <trkpt lat="43.84179" lon="-1.05349">
        <ele>85.21</ele>
        <time>2026-05-01T09:09:38Z</time>
      </trkpt>
      <trkpt lat="43.84158" lon="-1.05357">
        <ele>85.21</ele>
        <time>2026-05-01T09:09:57Z</time>
      </trkpt>
      <trkpt lat="43.84142" lon="-1.05359">
        <ele>84.73</ele>
        <time>2026-05-01T09:10:12Z</time>
      </trkpt>
      <trkpt lat="43.84137" lon="-1.05361">
        <ele>84.73</ele>
        <time>2026-05-01T09:10:17Z</time>
      </trkpt>
      <trkpt lat="43.84131" lon="-1.05363">
        <ele>84.73</ele>
        <time>2026-05-01T09:10:22Z</time>
      </trkpt>
      <trkpt lat="43.84112" lon="-1.05367">
        <ele>84.73</ele>
        <time>2026-05-01T09:10:40Z</time>
      </trkpt>
      <trkpt lat="43.84093" lon="-1.05371">
        <ele>84.73</ele>
        <time>2026-05-01T09:10:57Z</time>
      </trkpt>
      <trkpt lat="43.84073" lon="-1.05375">
        <ele>84.73</ele>
        <time>2026-05-01T09:11:13Z</time>
      </trkpt>
      <trkpt lat="43.84054" lon="-1.05379">
        <ele>84.73</ele>
        <time>2026-05-01T09:11:29Z</time>
      </trkpt>
      <trkpt lat="43.84032" lon="-1.05382">
        <ele>84.73</ele>
        <time>2026-05-01T09:11:48Z</time>
      </trkpt>
      <trkpt lat="43.84014" lon="-1.05384">
        <ele>84.73</ele>
        <time>2026-05-01T09:12:04Z</time>
      </trkpt>
      <trkpt lat="43.84" lon="-1.05388">
        <ele>84.73</ele>
        <time>2026-05-01T09:12:16Z</time>
      </trkpt>
      <trkpt lat="43.83997" lon="-1.05389">
        <ele>84.73</ele>
        <time>2026-05-01T09:12:19Z</time>
      </trkpt>
      <trkpt lat="43.83993" lon="-1.05388">
        <ele>84.73</ele>
        <time>2026-05-01T09:12:24Z</time>
      </trkpt>
      <trkpt lat="43.83977" lon="-1.05392">
        <ele>84.73</ele>
        <time>2026-05-01T09:12:38Z</time>
      </trkpt>
      <trkpt lat="43.8396" lon="-1.05397">
        <ele>84.73</ele>
        <time>2026-05-01T09:12:54Z</time>
      </trkpt>
      <trkpt lat="43.8394" lon="-1.05397">
        <ele>84.73</ele>
        <time>2026-05-01T09:13:11Z</time>
      </trkpt>
      <trkpt lat="43.83925" lon="-1.05399">
        <ele>84.73</ele>
        <time>2026-05-01T09:13:25Z</time>
      </trkpt>
      <trkpt lat="43.83907" lon="-1.05404">
        <ele>84.73</ele>
        <time>2026-05-01T09:13:42Z</time>
      </trkpt>
      <trkpt lat="43.83895" lon="-1.05405">
        <ele>84.73</ele>
        <time>2026-05-01T09:13:52Z</time>
      </trkpt>
      <trkpt lat="43.83879" lon="-1.05407">
        <ele>84.73</ele>
        <time>2026-05-01T09:14:07Z</time>
      </trkpt>
      <trkpt lat="43.8386" lon="-1.05411">
        <ele>84.73</ele>
        <time>2026-05-01T09:14:24Z</time>
      </trkpt>
      <trkpt lat="43.83848" lon="-1.05413">
        <ele>84.73</ele>
        <time>2026-05-01T09:14:38Z</time>
      </trkpt>
      <trkpt lat="43.83835" lon="-1.05406">
        <ele>84.73</ele>
        <time>2026-05-01T09:14:52Z</time>
      </trkpt>
      <trkpt lat="43.83821" lon="-1.05395">
        <ele>84.73</ele>
        <time>2026-05-01T09:15:09Z</time>
      </trkpt>
      <trkpt lat="43.83808" lon="-1.05387">
        <ele>84.73</ele>
        <time>2026-05-01T09:15:23Z</time>
      </trkpt>
      <trkpt lat="43.83791" lon="-1.05378">
        <ele>84.73</ele>
        <time>2026-05-01T09:15:39Z</time>
      </trkpt>
      <trkpt lat="43.83773" lon="-1.05369">
        <ele>85.21</ele>
        <time>2026-05-01T09:15:56Z</time>
      </trkpt>
      <trkpt lat="43.83772" lon="-1.05368">
        <ele>85.21</ele>
        <time>2026-05-01T09:15:57Z</time>
      </trkpt>
      <trkpt lat="43.83754" lon="-1.05362">
        <ele>85.21</ele>
        <time>2026-05-01T09:16:10Z</time>
      </trkpt>
      <trkpt lat="43.8374" lon="-1.05353">
        <ele>85.21</ele>
        <time>2026-05-01T09:16:27Z</time>
      </trkpt>
      <trkpt lat="43.83734" lon="-1.05348">
        <ele>85.21</ele>
        <time>2026-05-01T09:16:31Z</time>
      </trkpt>
      <trkpt lat="43.83722" lon="-1.05344">
        <ele>85.69</ele>
        <time>2026-05-01T09:16:43Z</time>
      </trkpt>
      <trkpt lat="43.8372" lon="-1.05342">
        <ele>85.69</ele>
        <time>2026-05-01T09:16:50Z</time>
      </trkpt>
      <trkpt lat="43.83717" lon="-1.05341">
        <ele>85.69</ele>
        <time>2026-05-01T09:16:52Z</time>
      </trkpt>
      <trkpt lat="43.8371" lon="-1.05336">
        <ele>85.69</ele>
        <time>2026-05-01T09:16:57Z</time>
      </trkpt>
      <trkpt lat="43.83703" lon="-1.05334">
        <ele>85.69</ele>
        <time>2026-05-01T09:17:06Z</time>
      </trkpt>
      <trkpt lat="43.83698" lon="-1.0533">
        <ele>85.69</ele>
        <time>2026-05-01T09:17:09Z</time>
      </trkpt>
      <trkpt lat="43.83691" lon="-1.05325">
        <ele>86.18</ele>
        <time>2026-05-01T09:17:19Z</time>
      </trkpt>
      <trkpt lat="43.83679" lon="-1.0532">
        <ele>86.18</ele>
        <time>2026-05-01T09:17:27Z</time>
      </trkpt>
      <trkpt lat="43.8367" lon="-1.05313">
        <ele>86.18</ele>
        <time>2026-05-01T09:17:35Z</time>
      </trkpt>
      <trkpt lat="43.83651" lon="-1.05304">
        <ele>86.66</ele>
        <time>2026-05-01T09:17:50Z</time>
      </trkpt>
      <trkpt lat="43.83634" lon="-1.05296">
        <ele>87.14</ele>
        <time>2026-05-01T09:18:06Z</time>
      </trkpt>
      <trkpt lat="43.83615" lon="-1.05286">
        <ele>87.14</ele>
        <time>2026-05-01T09:18:22Z</time>
      </trkpt>
      <trkpt lat="43.83589" lon="-1.05269">
        <ele>87.62</ele>
        <time>2026-05-01T09:18:38Z</time>
      </trkpt>
      <trkpt lat="43.83574" lon="-1.05268">
        <ele>87.62</ele>
        <time>2026-05-01T09:18:53Z</time>
      </trkpt>
      <trkpt lat="43.83558" lon="-1.05263">
        <ele>87.62</ele>
        <time>2026-05-01T09:19:09Z</time>
      </trkpt>
      <trkpt lat="43.83539" lon="-1.05259">
        <ele>87.62</ele>
        <time>2026-05-01T09:19:26Z</time>
      </trkpt>
      <trkpt lat="43.83515" lon="-1.05255">
        <ele>87.62</ele>
        <time>2026-05-01T09:19:47Z</time>
      </trkpt>
      <trkpt lat="43.83493" lon="-1.0525">
        <ele>87.62</ele>
        <time>2026-05-01T09:20:06Z</time>
      </trkpt>
      <trkpt lat="43.8347" lon="-1.05245">
        <ele>87.62</ele>
        <time>2026-05-01T09:20:26Z</time>
      </trkpt>
      <trkpt lat="43.83447" lon="-1.0524">
        <ele>87.62</ele>
        <time>2026-05-01T09:20:45Z</time>
      </trkpt>
      <trkpt lat="43.83426" lon="-1.05234">
        <ele>87.62</ele>
        <time>2026-05-01T09:21:04Z</time>
      </trkpt>
      <trkpt lat="43.83406" lon="-1.05228">
        <ele>87.62</ele>
        <time>2026-05-01T09:21:22Z</time>
      </trkpt>
      <trkpt lat="43.83387" lon="-1.05226">
        <ele>87.14</ele>
        <time>2026-05-01T09:21:39Z</time>
      </trkpt>
      <trkpt lat="43.83367" lon="-1.0522">
        <ele>87.14</ele>
        <time>2026-05-01T09:21:56Z</time>
      </trkpt>
      <trkpt lat="43.83346" lon="-1.05216">
        <ele>87.14</ele>
        <time>2026-05-01T09:22:14Z</time>
      </trkpt>
      <trkpt lat="43.83324" lon="-1.05211">
        <ele>87.14</ele>
        <time>2026-05-01T09:22:33Z</time>
      </trkpt>
      <trkpt lat="43.833" lon="-1.05205">
        <ele>87.14</ele>
        <time>2026-05-01T09:22:54Z</time>
      </trkpt>
      <trkpt lat="43.8328" lon="-1.05201">
        <ele>87.14</ele>
        <time>2026-05-01T09:23:11Z</time>
      </trkpt>
      <trkpt lat="43.83256" lon="-1.05195">
        <ele>87.14</ele>
        <time>2026-05-01T09:23:32Z</time>
      </trkpt>
      <trkpt lat="43.83237" lon="-1.05189">
        <ele>87.14</ele>
        <time>2026-05-01T09:23:50Z</time>
      </trkpt>
      <trkpt lat="43.83217" lon="-1.05182">
        <ele>87.14</ele>
        <time>2026-05-01T09:24:10Z</time>
      </trkpt>
      <trkpt lat="43.83198" lon="-1.05179">
        <ele>87.14</ele>
        <time>2026-05-01T09:24:26Z</time>
      </trkpt>
      <trkpt lat="43.8318" lon="-1.05176">
        <ele>87.14</ele>
        <time>2026-05-01T09:24:41Z</time>
      </trkpt>
      <trkpt lat="43.83175" lon="-1.05176">
        <ele>86.66</ele>
        <time>2026-05-01T09:24:46Z</time>
      </trkpt>
      <trkpt lat="43.83151" lon="-1.0517">
        <ele>86.66</ele>
        <time>2026-05-01T09:25:05Z</time>
      </trkpt>
      <trkpt lat="43.83128" lon="-1.05164">
        <ele>86.66</ele>
        <time>2026-05-01T09:25:25Z</time>
      </trkpt>
      <trkpt lat="43.83109" lon="-1.0516">
        <ele>86.18</ele>
        <time>2026-05-01T09:28:35Z</time>
      </trkpt>
      <trkpt lat="43.83103" lon="-1.05157">
        <ele>86.18</ele>
        <time>2026-05-01T09:28:56Z</time>
      </trkpt>
      <trkpt lat="43.8308" lon="-1.05154">
        <ele>86.18</ele>
        <time>2026-05-01T09:29:14Z</time>
      </trkpt>
      <trkpt lat="43.83055" lon="-1.05146">
        <ele>86.18</ele>
        <time>2026-05-01T09:29:36Z</time>
      </trkpt>
      <trkpt lat="43.83029" lon="-1.05141">
        <ele>86.18</ele>
        <time>2026-05-01T09:29:57Z</time>
      </trkpt>
      <trkpt lat="43.83011" lon="-1.05141">
        <ele>86.18</ele>
        <time>2026-05-01T09:30:15Z</time>
      </trkpt>
      <trkpt lat="43.82998" lon="-1.05145">
        <ele>85.69</ele>
        <time>2026-05-01T09:30:33Z</time>
      </trkpt>
      <trkpt lat="43.82989" lon="-1.0515">
        <ele>85.69</ele>
        <time>2026-05-01T09:30:43Z</time>
      </trkpt>
      <trkpt lat="43.82985" lon="-1.05152">
        <ele>85.69</ele>
        <time>2026-05-01T09:30:47Z</time>
      </trkpt>
      <trkpt lat="43.82963" lon="-1.05164">
        <ele>85.69</ele>
        <time>2026-05-01T09:31:08Z</time>
      </trkpt>
      <trkpt lat="43.82957" lon="-1.05167">
        <ele>85.69</ele>
        <time>2026-05-01T09:31:14Z</time>
      </trkpt>
      <trkpt lat="43.82954" lon="-1.05168">
        <ele>85.69</ele>
        <time>2026-05-01T09:31:17Z</time>
      </trkpt>
      <trkpt lat="43.82932" lon="-1.05177">
        <ele>85.69</ele>
        <time>2026-05-01T09:31:35Z</time>
      </trkpt>
      <trkpt lat="43.8292" lon="-1.05183">
        <ele>85.69</ele>
        <time>2026-05-01T09:31:45Z</time>
      </trkpt>
      <trkpt lat="43.82902" lon="-1.05195">
        <ele>85.21</ele>
        <time>2026-05-01T09:32:03Z</time>
      </trkpt>
      <trkpt lat="43.82881" lon="-1.05206">
        <ele>85.21</ele>
        <time>2026-05-01T09:32:23Z</time>
      </trkpt>
      <trkpt lat="43.8286" lon="-1.05215">
        <ele>84.73</ele>
        <time>2026-05-01T09:32:41Z</time>
      </trkpt>
      <trkpt lat="43.82839" lon="-1.05224">
        <ele>84.73</ele>
        <time>2026-05-01T09:32:58Z</time>
      </trkpt>
      <trkpt lat="43.82835" lon="-1.05226">
        <ele>84.73</ele>
        <time>2026-05-01T09:33:15Z</time>
      </trkpt>
      <trkpt lat="43.82823" lon="-1.05232">
        <ele>84.73</ele>
        <time>2026-05-01T09:33:33Z</time>
      </trkpt>
      <trkpt lat="43.82821" lon="-1.05233">
        <ele>84.73</ele>
        <time>2026-05-01T09:33:35Z</time>
      </trkpt>
      <trkpt lat="43.82818" lon="-1.05232">
        <ele>84.73</ele>
        <time>2026-05-01T09:33:37Z</time>
      </trkpt>
      <trkpt lat="43.82813" lon="-1.05235">
        <ele>84.73</ele>
        <time>2026-05-01T09:33:41Z</time>
      </trkpt>
      <trkpt lat="43.8279" lon="-1.05245">
        <ele>84.73</ele>
        <time>2026-05-01T09:34:01Z</time>
      </trkpt>
      <trkpt lat="43.8277" lon="-1.05254">
        <ele>84.73</ele>
        <time>2026-05-01T09:34:18Z</time>
      </trkpt>
      <trkpt lat="43.82748" lon="-1.05267">
        <ele>84.25</ele>
        <time>2026-05-01T09:34:38Z</time>
      </trkpt>
      <trkpt lat="43.82726" lon="-1.05277">
        <ele>84.25</ele>
        <time>2026-05-01T09:34:58Z</time>
      </trkpt>
      <trkpt lat="43.8272" lon="-1.0528">
        <ele>84.25</ele>
        <time>2026-05-01T09:35:04Z</time>
      </trkpt>
      <trkpt lat="43.82695" lon="-1.05291">
        <ele>84.25</ele>
        <time>2026-05-01T09:35:25Z</time>
      </trkpt>
      <trkpt lat="43.82674" lon="-1.05301">
        <ele>84.25</ele>
        <time>2026-05-01T09:35:43Z</time>
      </trkpt>
      <trkpt lat="43.82656" lon="-1.0531">
        <ele>84.25</ele>
        <time>2026-05-01T09:36:00Z</time>
      </trkpt>
      <trkpt lat="43.82641" lon="-1.05319">
        <ele>84.25</ele>
        <time>2026-05-01T09:36:14Z</time>
      </trkpt>
      <trkpt lat="43.82619" lon="-1.05328">
        <ele>83.77</ele>
        <time>2026-05-01T09:36:33Z</time>
      </trkpt>
      <trkpt lat="43.826" lon="-1.05335">
        <ele>83.77</ele>
        <time>2026-05-01T09:36:50Z</time>
      </trkpt>
      <trkpt lat="43.82578" lon="-1.05347">
        <ele>83.77</ele>
        <time>2026-05-01T09:37:09Z</time>
      </trkpt>
      <trkpt lat="43.82556" lon="-1.05358">
        <ele>83.77</ele>
        <time>2026-05-01T09:37:29Z</time>
      </trkpt>
      <trkpt lat="43.82537" lon="-1.05367">
        <ele>83.29</ele>
        <time>2026-05-01T09:37:46Z</time>
      </trkpt>
      <trkpt lat="43.82517" lon="-1.05375">
        <ele>83.29</ele>
        <time>2026-05-01T09:38:03Z</time>
      </trkpt>
      <trkpt lat="43.82495" lon="-1.05386">
        <ele>83.29</ele>
        <time>2026-05-01T09:38:23Z</time>
      </trkpt>
      <trkpt lat="43.82478" lon="-1.05399">
        <ele>83.29</ele>
        <time>2026-05-01T09:38:41Z</time>
      </trkpt>
      <trkpt lat="43.82477" lon="-1.05399">
        <ele>83.29</ele>
        <time>2026-05-01T09:38:42Z</time>
      </trkpt>
      <trkpt lat="43.82461" lon="-1.05399">
        <ele>83.29</ele>
        <time>2026-05-01T09:43:03Z</time>
      </trkpt>
      <trkpt lat="43.82456" lon="-1.05398">
        <ele>83.29</ele>
        <time>2026-05-01T09:43:07Z</time>
      </trkpt>
      <trkpt lat="43.82436" lon="-1.05391">
        <ele>83.29</ele>
        <time>2026-05-01T09:43:25Z</time>
      </trkpt>
      <trkpt lat="43.82415" lon="-1.05382">
        <ele>83.29</ele>
        <time>2026-05-01T09:43:45Z</time>
      </trkpt>
      <trkpt lat="43.82392" lon="-1.05374">
        <ele>83.29</ele>
        <time>2026-05-01T09:44:04Z</time>
      </trkpt>
      <trkpt lat="43.82372" lon="-1.05367">
        <ele>83.29</ele>
        <time>2026-05-01T09:44:22Z</time>
      </trkpt>
      <trkpt lat="43.8235" lon="-1.05361">
        <ele>83.29</ele>
        <time>2026-05-01T09:44:41Z</time>
      </trkpt>
      <trkpt lat="43.8233" lon="-1.05352">
        <ele>83.29</ele>
        <time>2026-05-01T09:44:59Z</time>
      </trkpt>
      <trkpt lat="43.8231" lon="-1.05345">
        <ele>83.29</ele>
        <time>2026-05-01T09:45:17Z</time>
      </trkpt>
      <trkpt lat="43.82286" lon="-1.05334">
        <ele>82.81</ele>
        <time>2026-05-01T09:45:39Z</time>
      </trkpt>
      <trkpt lat="43.82267" lon="-1.05329">
        <ele>82.81</ele>
        <time>2026-05-01T09:45:56Z</time>
      </trkpt>
      <trkpt lat="43.82249" lon="-1.05324">
        <ele>82.81</ele>
        <time>2026-05-01T09:46:13Z</time>
      </trkpt>
      <trkpt lat="43.82246" lon="-1.05322">
        <ele>82.81</ele>
        <time>2026-05-01T09:46:16Z</time>
      </trkpt>
      <trkpt lat="43.82225" lon="-1.05314">
        <ele>82.81</ele>
        <time>2026-05-01T09:46:36Z</time>
      </trkpt>
      <trkpt lat="43.82209" lon="-1.05307">
        <ele>84.73</ele>
        <time>2026-05-01T09:46:54Z</time>
      </trkpt>
      <trkpt lat="43.82203" lon="-1.05304">
        <ele>82.33</ele>
        <time>2026-05-01T09:46:59Z</time>
      </trkpt>
      <trkpt lat="43.82181" lon="-1.05299">
        <ele>81.85</ele>
        <time>2026-05-01T09:47:18Z</time>
      </trkpt>
      <trkpt lat="43.8216" lon="-1.05291">
        <ele>81.85</ele>
        <time>2026-05-01T09:47:37Z</time>
      </trkpt>
      <trkpt lat="43.82141" lon="-1.05284">
        <ele>81.85</ele>
        <time>2026-05-01T09:47:54Z</time>
      </trkpt>
      <trkpt lat="43.82119" lon="-1.05277">
        <ele>81.85</ele>
        <time>2026-05-01T09:48:14Z</time>
      </trkpt>
      <trkpt lat="43.82099" lon="-1.0527">
        <ele>81.85</ele>
        <time>2026-05-01T09:48:32Z</time>
      </trkpt>
      <trkpt lat="43.82075" lon="-1.05261">
        <ele>81.37</ele>
        <time>2026-05-01T09:48:53Z</time>
      </trkpt>
      <trkpt lat="43.82051" lon="-1.05254">
        <ele>81.37</ele>
        <time>2026-05-01T09:49:14Z</time>
      </trkpt>
      <trkpt lat="43.8203" lon="-1.05247">
        <ele>81.37</ele>
        <time>2026-05-01T09:49:32Z</time>
      </trkpt>
      <trkpt lat="43.82009" lon="-1.0524">
        <ele>81.37</ele>
        <time>2026-05-01T09:49:51Z</time>
      </trkpt>
      <trkpt lat="43.81988" lon="-1.05232">
        <ele>80.89</ele>
        <time>2026-05-01T09:50:11Z</time>
      </trkpt>
      <trkpt lat="43.81966" lon="-1.05223">
        <ele>80.89</ele>
        <time>2026-05-01T09:50:31Z</time>
      </trkpt>
      <trkpt lat="43.81948" lon="-1.05217">
        <ele>80.89</ele>
        <time>2026-05-01T09:50:49Z</time>
      </trkpt>
      <trkpt lat="43.8193" lon="-1.05225">
        <ele>80.41</ele>
        <time>2026-05-01T09:51:06Z</time>
      </trkpt>
      <trkpt lat="43.81912" lon="-1.05235">
        <ele>80.41</ele>
        <time>2026-05-01T09:51:24Z</time>
      </trkpt>
      <trkpt lat="43.81897" lon="-1.05244">
        <ele>80.41</ele>
        <time>2026-05-01T09:51:41Z</time>
      </trkpt>
      <trkpt lat="43.81887" lon="-1.0525">
        <ele>79.93</ele>
        <time>2026-05-01T09:51:55Z</time>
      </trkpt>
      <trkpt lat="43.81878" lon="-1.05258">
        <ele>79.93</ele>
        <time>2026-05-01T09:52:06Z</time>
      </trkpt>
      <trkpt lat="43.81861" lon="-1.05267">
        <ele>79.93</ele>
        <time>2026-05-01T09:52:23Z</time>
      </trkpt>
      <trkpt lat="43.81848" lon="-1.05274">
        <ele>79.93</ele>
        <time>2026-05-01T09:52:39Z</time>
      </trkpt>
      <trkpt lat="43.81836" lon="-1.0528">
        <ele>79.93</ele>
        <time>2026-05-01T09:52:52Z</time>
      </trkpt>
      <trkpt lat="43.81818" lon="-1.05292">
        <ele>79.45</ele>
        <time>2026-05-01T09:53:11Z</time>
      </trkpt>
      <trkpt lat="43.81804" lon="-1.05301">
        <ele>79.45</ele>
        <time>2026-05-01T09:53:26Z</time>
      </trkpt>
      <trkpt lat="43.818" lon="-1.05303">
        <ele>79.45</ele>
        <time>2026-05-01T09:53:32Z</time>
      </trkpt>
      <trkpt lat="43.81795" lon="-1.05306">
        <ele>79.45</ele>
        <time>2026-05-01T09:53:38Z</time>
      </trkpt>
      <trkpt lat="43.8178" lon="-1.05313">
        <ele>79.45</ele>
        <time>2026-05-01T09:53:54Z</time>
      </trkpt>
      <trkpt lat="43.81764" lon="-1.05322">
        <ele>79.45</ele>
        <time>2026-05-01T09:54:11Z</time>
      </trkpt>
      <trkpt lat="43.81762" lon="-1.05321">
        <ele>79.45</ele>
        <time>2026-05-01T09:54:23Z</time>
      </trkpt>
      <trkpt lat="43.81754" lon="-1.05327">
        <ele>79.45</ele>
        <time>2026-05-01T09:54:31Z</time>
      </trkpt>
      <trkpt lat="43.81745" lon="-1.05335">
        <ele>79.45</ele>
        <time>2026-05-01T09:54:41Z</time>
      </trkpt>
      <trkpt lat="43.81737" lon="-1.05338">
        <ele>79.45</ele>
        <time>2026-05-01T09:54:55Z</time>
      </trkpt>
      <trkpt lat="43.81725" lon="-1.05346">
        <ele>79.45</ele>
        <time>2026-05-01T09:55:07Z</time>
      </trkpt>
      <trkpt lat="43.81718" lon="-1.0535">
        <ele>79.45</ele>
        <time>2026-05-01T09:55:14Z</time>
      </trkpt>
      <trkpt lat="43.81699" lon="-1.05362">
        <ele>78.97</ele>
        <time>2026-05-01T09:55:33Z</time>
      </trkpt>
      <trkpt lat="43.81692" lon="-1.05366">
        <ele>78.97</ele>
        <time>2026-05-01T09:55:39Z</time>
      </trkpt>
      <trkpt lat="43.81688" lon="-1.05369">
        <ele>78.97</ele>
        <time>2026-05-01T09:55:43Z</time>
      </trkpt>
      <trkpt lat="43.81682" lon="-1.05374">
        <ele>78.97</ele>
        <time>2026-05-01T09:55:49Z</time>
      </trkpt>
      <trkpt lat="43.81677" lon="-1.05378">
        <ele>78.97</ele>
        <time>2026-05-01T09:55:54Z</time>
      </trkpt>
      <trkpt lat="43.81656" lon="-1.05389">
        <ele>78.97</ele>
        <time>2026-05-01T09:56:14Z</time>
      </trkpt>
      <trkpt lat="43.81649" lon="-1.05394">
        <ele>78.97</ele>
        <time>2026-05-01T09:56:21Z</time>
      </trkpt>
      <trkpt lat="43.8164" lon="-1.05398">
        <ele>78.97</ele>
        <time>2026-05-01T09:56:30Z</time>
      </trkpt>
      <trkpt lat="43.81625" lon="-1.05404">
        <ele>78.48</ele>
        <time>2026-05-01T09:56:45Z</time>
      </trkpt>
      <trkpt lat="43.8161" lon="-1.05415">
        <ele>78.48</ele>
        <time>2026-05-01T09:57:02Z</time>
      </trkpt>
      <trkpt lat="43.81597" lon="-1.05422">
        <ele>78.48</ele>
        <time>2026-05-01T09:57:16Z</time>
      </trkpt>
      <trkpt lat="43.81587" lon="-1.05432">
        <ele>78.48</ele>
        <time>2026-05-01T09:57:31Z</time>
      </trkpt>
      <trkpt lat="43.81579" lon="-1.05439">
        <ele>78.48</ele>
        <time>2026-05-01T09:57:41Z</time>
      </trkpt>
      <trkpt lat="43.81569" lon="-1.05444">
        <ele>78.48</ele>
        <time>2026-05-01T09:57:51Z</time>
      </trkpt>
      <trkpt lat="43.81554" lon="-1.05452">
        <ele>78.48</ele>
        <time>2026-05-01T09:58:06Z</time>
      </trkpt>
      <trkpt lat="43.81535" lon="-1.05462">
        <ele>78.48</ele>
        <time>2026-05-01T09:58:24Z</time>
      </trkpt>
      <trkpt lat="43.8152" lon="-1.05471">
        <ele>78</ele>
        <time>2026-05-01T09:58:39Z</time>
      </trkpt>
      <trkpt lat="43.81508" lon="-1.05479">
        <ele>78</ele>
        <time>2026-05-01T09:58:53Z</time>
      </trkpt>
      <trkpt lat="43.815" lon="-1.05484">
        <ele>78</ele>
        <time>2026-05-01T09:59:01Z</time>
      </trkpt>
      <trkpt lat="43.81491" lon="-1.05491">
        <ele>78</ele>
        <time>2026-05-01T09:59:10Z</time>
      </trkpt>
      <trkpt lat="43.81471" lon="-1.055">
        <ele>78</ele>
        <time>2026-05-01T09:59:29Z</time>
      </trkpt>
      <trkpt lat="43.81455" lon="-1.05512">
        <ele>78</ele>
        <time>2026-05-01T09:59:47Z</time>
      </trkpt>
      <trkpt lat="43.81438" lon="-1.05522">
        <ele>78</ele>
        <time>2026-05-01T10:00:05Z</time>
      </trkpt>
      <trkpt lat="43.81423" lon="-1.0553">
        <ele>78</ele>
        <time>2026-05-01T10:00:20Z</time>
      </trkpt>
      <trkpt lat="43.81407" lon="-1.05541">
        <ele>78</ele>
        <time>2026-05-01T10:00:36Z</time>
      </trkpt>
      <trkpt lat="43.81388" lon="-1.0555">
        <ele>78</ele>
        <time>2026-05-01T10:00:53Z</time>
      </trkpt>
      <trkpt lat="43.81368" lon="-1.0556">
        <ele>78</ele>
        <time>2026-05-01T10:01:11Z</time>
      </trkpt>
      <trkpt lat="43.81349" lon="-1.05571">
        <ele>77.52</ele>
        <time>2026-05-01T10:01:28Z</time>
      </trkpt>
      <trkpt lat="43.81332" lon="-1.05579">
        <ele>77.52</ele>
        <time>2026-05-01T10:01:44Z</time>
      </trkpt>
      <trkpt lat="43.81321" lon="-1.05586">
        <ele>77.04</ele>
        <time>2026-05-01T10:01:58Z</time>
      </trkpt>
      <trkpt lat="43.81307" lon="-1.056">
        <ele>74.64</ele>
        <time>2026-05-01T11:22:31Z</time>
      </trkpt>
      <trkpt lat="43.81295" lon="-1.05609">
        <ele>74.16</ele>
        <time>2026-05-01T11:22:49Z</time>
      </trkpt>
      <trkpt lat="43.81276" lon="-1.05621">
        <ele>74.16</ele>
        <time>2026-05-01T11:23:06Z</time>
      </trkpt>
      <trkpt lat="43.81254" lon="-1.05635">
        <ele>74.16</ele>
        <time>2026-05-01T11:23:26Z</time>
      </trkpt>
      <trkpt lat="43.81234" lon="-1.05646">
        <ele>74.16</ele>
        <time>2026-05-01T11:23:45Z</time>
      </trkpt>
      <trkpt lat="43.81211" lon="-1.05662">
        <ele>74.16</ele>
        <time>2026-05-01T11:24:04Z</time>
      </trkpt>
      <trkpt lat="43.81189" lon="-1.05675">
        <ele>74.16</ele>
        <time>2026-05-01T11:24:24Z</time>
      </trkpt>
      <trkpt lat="43.81165" lon="-1.0568">
        <ele>73.68</ele>
        <time>2026-05-01T11:24:45Z</time>
      </trkpt>
      <trkpt lat="43.81142" lon="-1.05683">
        <ele>73.68</ele>
        <time>2026-05-01T11:25:04Z</time>
      </trkpt>
      <trkpt lat="43.81125" lon="-1.05679">
        <ele>73.2</ele>
        <time>2026-05-01T11:25:23Z</time>
      </trkpt>
      <trkpt lat="43.81123" lon="-1.05683">
        <ele>73.2</ele>
        <time>2026-05-01T11:25:38Z</time>
      </trkpt>
      <trkpt lat="43.81104" lon="-1.05693">
        <ele>72.72</ele>
        <time>2026-05-01T11:25:59Z</time>
      </trkpt>
      <trkpt lat="43.81078" lon="-1.05698">
        <ele>71.76</ele>
        <time>2026-05-01T11:26:20Z</time>
      </trkpt>
      <trkpt lat="43.81049" lon="-1.05697">
        <ele>71.76</ele>
        <time>2026-05-01T11:26:44Z</time>
      </trkpt>
      <trkpt lat="43.81023" lon="-1.05694">
        <ele>71.76</ele>
        <time>2026-05-01T11:27:07Z</time>
      </trkpt>
      <trkpt lat="43.80995" lon="-1.05694">
        <ele>71.27</ele>
        <time>2026-05-01T11:27:29Z</time>
      </trkpt>
      <trkpt lat="43.80966" lon="-1.05692">
        <ele>70.79</ele>
        <time>2026-05-01T11:27:52Z</time>
      </trkpt>
      <trkpt lat="43.80939" lon="-1.05691">
        <ele>70.31</ele>
        <time>2026-05-01T11:28:13Z</time>
      </trkpt>
      <trkpt lat="43.80912" lon="-1.0569">
        <ele>69.83</ele>
        <time>2026-05-01T11:28:33Z</time>
      </trkpt>
      <trkpt lat="43.80884" lon="-1.0569">
        <ele>69.83</ele>
        <time>2026-05-01T11:28:54Z</time>
      </trkpt>
      <trkpt lat="43.80857" lon="-1.05693">
        <ele>69.83</ele>
        <time>2026-05-01T11:29:15Z</time>
      </trkpt>
      <trkpt lat="43.80828" lon="-1.05692">
        <ele>69.83</ele>
        <time>2026-05-01T11:29:38Z</time>
      </trkpt>
      <trkpt lat="43.80803" lon="-1.05702">
        <ele>69.35</ele>
        <time>2026-05-01T11:29:57Z</time>
      </trkpt>
      <trkpt lat="43.80784" lon="-1.05716">
        <ele>68.87</ele>
        <time>2026-05-01T11:30:16Z</time>
      </trkpt>
      <trkpt lat="43.80766" lon="-1.05732">
        <ele>68.87</ele>
        <time>2026-05-01T11:30:35Z</time>
      </trkpt>
      <trkpt lat="43.80745" lon="-1.05754">
        <ele>68.87</ele>
        <time>2026-05-01T11:30:55Z</time>
      </trkpt>
      <trkpt lat="43.80736" lon="-1.05765">
        <ele>68.87</ele>
        <time>2026-05-01T11:31:05Z</time>
      </trkpt>
      <trkpt lat="43.80717" lon="-1.05768">
        <ele>68.87</ele>
        <time>2026-05-01T11:31:22Z</time>
      </trkpt>
      <trkpt lat="43.80699" lon="-1.05733">
        <ele>68.87</ele>
        <time>2026-05-01T11:31:45Z</time>
      </trkpt>
      <trkpt lat="43.80683" lon="-1.05707">
        <ele>68.39</ele>
        <time>2026-05-01T11:32:05Z</time>
      </trkpt>
      <trkpt lat="43.80661" lon="-1.05684">
        <ele>68.39</ele>
        <time>2026-05-01T11:32:24Z</time>
      </trkpt>
      <trkpt lat="43.80647" lon="-1.05663">
        <ele>67.91</ele>
        <time>2026-05-01T11:32:42Z</time>
      </trkpt>
      <trkpt lat="43.80628" lon="-1.05638">
        <ele>67.43</ele>
        <time>2026-05-01T11:33:03Z</time>
      </trkpt>
      <trkpt lat="43.80606" lon="-1.05611">
        <ele>66.95</ele>
        <time>2026-05-01T11:33:27Z</time>
      </trkpt>
      <trkpt lat="43.80584" lon="-1.05584">
        <ele>66.47</ele>
        <time>2026-05-01T11:33:49Z</time>
      </trkpt>
      <trkpt lat="43.80562" lon="-1.05556">
        <ele>66.47</ele>
        <time>2026-05-01T11:34:13Z</time>
      </trkpt>
      <trkpt lat="43.80541" lon="-1.05527">
        <ele>65.51</ele>
        <time>2026-05-01T11:34:36Z</time>
      </trkpt>
      <trkpt lat="43.80522" lon="-1.05505">
        <ele>65.03</ele>
        <time>2026-05-01T11:34:57Z</time>
      </trkpt>
      <trkpt lat="43.805" lon="-1.0548">
        <ele>64.55</ele>
        <time>2026-05-01T11:35:19Z</time>
      </trkpt>
      <trkpt lat="43.80482" lon="-1.05458">
        <ele>64.07</ele>
        <time>2026-05-01T11:35:38Z</time>
      </trkpt>
      <trkpt lat="43.80462" lon="-1.05435">
        <ele>63.58</ele>
        <time>2026-05-01T11:35:58Z</time>
      </trkpt>
      <trkpt lat="43.80443" lon="-1.05415">
        <ele>63.58</ele>
        <time>2026-05-01T11:36:18Z</time>
      </trkpt>
      <trkpt lat="43.80425" lon="-1.05389">
        <ele>62.62</ele>
        <time>2026-05-01T11:36:38Z</time>
      </trkpt>
      <trkpt lat="43.80415" lon="-1.05361">
        <ele>61.18</ele>
        <time>2026-05-01T11:36:56Z</time>
      </trkpt>
      <trkpt lat="43.80415" lon="-1.05359">
        <ele>61.18</ele>
        <time>2026-05-01T11:36:58Z</time>
      </trkpt>
      <trkpt lat="43.80414" lon="-1.05352">
        <ele>61.18</ele>
        <time>2026-05-01T11:37:02Z</time>
      </trkpt>
      <trkpt lat="43.80407" lon="-1.0532">
        <ele>59.74</ele>
        <time>2026-05-01T11:37:21Z</time>
      </trkpt>
      <trkpt lat="43.80398" lon="-1.05285">
        <ele>58.3</ele>
        <time>2026-05-01T11:37:42Z</time>
      </trkpt>
      <trkpt lat="43.80392" lon="-1.05249">
        <ele>57.34</ele>
        <time>2026-05-01T11:38:00Z</time>
      </trkpt>
      <trkpt lat="43.80395" lon="-1.05213">
        <ele>57.82</ele>
        <time>2026-05-01T11:38:20Z</time>
      </trkpt>
      <trkpt lat="43.80405" lon="-1.0519">
        <ele>57.82</ele>
        <time>2026-05-01T11:38:36Z</time>
      </trkpt>
      <trkpt lat="43.80409" lon="-1.05161">
        <ele>57.82</ele>
        <time>2026-05-01T11:38:54Z</time>
      </trkpt>
      <trkpt lat="43.80412" lon="-1.05152">
        <ele>58.78</ele>
        <time>2026-05-01T11:39:02Z</time>
      </trkpt>
      <trkpt lat="43.80417" lon="-1.05129">
        <ele>59.74</ele>
        <time>2026-05-01T11:39:21Z</time>
      </trkpt>
      <trkpt lat="43.80418" lon="-1.05103">
        <ele>61.66</ele>
        <time>2026-05-01T11:39:38Z</time>
      </trkpt>
      <trkpt lat="43.8042" lon="-1.05082">
        <ele>62.62</ele>
        <time>2026-05-01T11:39:55Z</time>
      </trkpt>
      <trkpt lat="43.80421" lon="-1.05056">
        <ele>64.07</ele>
        <time>2026-05-01T11:40:15Z</time>
      </trkpt>
      <trkpt lat="43.80418" lon="-1.05029">
        <ele>64.07</ele>
        <time>2026-05-01T11:40:33Z</time>
      </trkpt>
      <trkpt lat="43.80418" lon="-1.04997">
        <ele>65.03</ele>
        <time>2026-05-01T11:40:52Z</time>
      </trkpt>
      <trkpt lat="43.80417" lon="-1.04967">
        <ele>65.51</ele>
        <time>2026-05-01T11:41:11Z</time>
      </trkpt>
      <trkpt lat="43.80417" lon="-1.04941">
        <ele>65.99</ele>
        <time>2026-05-01T11:41:29Z</time>
      </trkpt>
      <trkpt lat="43.80416" lon="-1.04913">
        <ele>66.47</ele>
        <time>2026-05-01T11:41:46Z</time>
      </trkpt>
      <trkpt lat="43.80416" lon="-1.04902">
        <ele>67.43</ele>
        <time>2026-05-01T11:41:53Z</time>
      </trkpt>
      <trkpt lat="43.80419" lon="-1.0487">
        <ele>67.91</ele>
        <time>2026-05-01T11:42:13Z</time>
      </trkpt>
      <trkpt lat="43.80419" lon="-1.04868">
        <ele>67.91</ele>
        <time>2026-05-01T11:42:14Z</time>
      </trkpt>
      <trkpt lat="43.80421" lon="-1.04836">
        <ele>68.39</ele>
        <time>2026-05-01T11:42:34Z</time>
      </trkpt>
      <trkpt lat="43.80423" lon="-1.04807">
        <ele>68.39</ele>
        <time>2026-05-01T11:42:54Z</time>
      </trkpt>
      <trkpt lat="43.80423" lon="-1.0478">
        <ele>68.39</ele>
        <time>2026-05-01T11:43:11Z</time>
      </trkpt>
      <trkpt lat="43.80427" lon="-1.04752">
        <ele>68.39</ele>
        <time>2026-05-01T11:43:30Z</time>
      </trkpt>
      <trkpt lat="43.80431" lon="-1.04732">
        <ele>68.39</ele>
        <time>2026-05-01T11:43:45Z</time>
      </trkpt>
      <trkpt lat="43.80421" lon="-1.04707">
        <ele>67.91</ele>
        <time>2026-05-01T11:44:03Z</time>
      </trkpt>
      <trkpt lat="43.80417" lon="-1.04693">
        <ele>66.95</ele>
        <time>2026-05-01T11:44:14Z</time>
      </trkpt>
      <trkpt lat="43.80411" lon="-1.04686">
        <ele>66.47</ele>
        <time>2026-05-01T11:44:28Z</time>
      </trkpt>
      <trkpt lat="43.80406" lon="-1.04651">
        <ele>66.47</ele>
        <time>2026-05-01T11:44:50Z</time>
      </trkpt>
      <trkpt lat="43.80397" lon="-1.04623">
        <ele>66.47</ele>
        <time>2026-05-01T11:45:08Z</time>
      </trkpt>
      <trkpt lat="43.80388" lon="-1.04589">
        <ele>65.99</ele>
        <time>2026-05-01T11:45:31Z</time>
      </trkpt>
      <trkpt lat="43.80379" lon="-1.04559">
        <ele>65.99</ele>
        <time>2026-05-01T11:45:51Z</time>
      </trkpt>
      <trkpt lat="43.80369" lon="-1.04529">
        <ele>65.99</ele>
        <time>2026-05-01T11:46:10Z</time>
      </trkpt>
      <trkpt lat="43.80361" lon="-1.04499">
        <ele>65.51</ele>
        <time>2026-05-01T11:46:29Z</time>
      </trkpt>
      <trkpt lat="43.80355" lon="-1.04471">
        <ele>65.51</ele>
        <time>2026-05-01T11:46:48Z</time>
      </trkpt>
      <trkpt lat="43.8035" lon="-1.04437">
        <ele>65.51</ele>
        <time>2026-05-01T11:47:09Z</time>
      </trkpt>
      <trkpt lat="43.80345" lon="-1.04409">
        <ele>65.51</ele>
        <time>2026-05-01T11:47:29Z</time>
      </trkpt>
      <trkpt lat="43.80341" lon="-1.04385">
        <ele>65.99</ele>
        <time>2026-05-01T11:47:48Z</time>
      </trkpt>
      <trkpt lat="43.8034" lon="-1.0438">
        <ele>66.95</ele>
        <time>2026-05-01T11:47:51Z</time>
      </trkpt>
      <trkpt lat="43.80332" lon="-1.04344">
        <ele>67.43</ele>
        <time>2026-05-01T11:48:12Z</time>
      </trkpt>
      <trkpt lat="43.80318" lon="-1.04313">
        <ele>67.43</ele>
        <time>2026-05-01T11:48:32Z</time>
      </trkpt>
      <trkpt lat="43.80307" lon="-1.0431">
        <ele>67.43</ele>
        <time>2026-05-01T11:48:40Z</time>
      </trkpt>
      <trkpt lat="43.80284" lon="-1.04305">
        <ele>67.91</ele>
        <time>2026-05-01T11:49:00Z</time>
      </trkpt>
      <trkpt lat="43.80264" lon="-1.04304">
        <ele>67.91</ele>
        <time>2026-05-01T11:49:19Z</time>
      </trkpt>
      <trkpt lat="43.80242" lon="-1.04302">
        <ele>67.91</ele>
        <time>2026-05-01T11:49:37Z</time>
      </trkpt>
      <trkpt lat="43.80225" lon="-1.04291">
        <ele>67.91</ele>
        <time>2026-05-01T11:49:54Z</time>
      </trkpt>
      <trkpt lat="43.80213" lon="-1.04285">
        <ele>66.47</ele>
        <time>2026-05-01T11:50:04Z</time>
      </trkpt>
      <trkpt lat="43.80194" lon="-1.04274">
        <ele>66.47</ele>
        <time>2026-05-01T11:50:22Z</time>
      </trkpt>
      <trkpt lat="43.80173" lon="-1.04261">
        <ele>65.99</ele>
        <time>2026-05-01T11:50:41Z</time>
      </trkpt>
      <trkpt lat="43.80153" lon="-1.0425">
        <ele>65.99</ele>
        <time>2026-05-01T11:51:00Z</time>
      </trkpt>
      <trkpt lat="43.80135" lon="-1.04241">
        <ele>65.51</ele>
        <time>2026-05-01T11:51:18Z</time>
      </trkpt>
      <trkpt lat="43.80112" lon="-1.0423">
        <ele>65.03</ele>
        <time>2026-05-01T11:51:39Z</time>
      </trkpt>
      <trkpt lat="43.80093" lon="-1.04213">
        <ele>65.03</ele>
        <time>2026-05-01T11:51:59Z</time>
      </trkpt>
      <trkpt lat="43.80076" lon="-1.0419">
        <ele>65.03</ele>
        <time>2026-05-01T11:52:18Z</time>
      </trkpt>
      <trkpt lat="43.80055" lon="-1.0418">
        <ele>64.55</ele>
        <time>2026-05-01T11:52:38Z</time>
      </trkpt>
      <trkpt lat="43.80036" lon="-1.04175">
        <ele>64.55</ele>
        <time>2026-05-01T11:52:55Z</time>
      </trkpt>
      <trkpt lat="43.80013" lon="-1.04156">
        <ele>64.55</ele>
        <time>2026-05-01T11:53:18Z</time>
      </trkpt>
      <trkpt lat="43.79991" lon="-1.04143">
        <ele>64.55</ele>
        <time>2026-05-01T11:53:38Z</time>
      </trkpt>
      <trkpt lat="43.79973" lon="-1.04135">
        <ele>64.55</ele>
        <time>2026-05-01T11:53:57Z</time>
      </trkpt>
      <trkpt lat="43.79953" lon="-1.04122">
        <ele>64.07</ele>
        <time>2026-05-01T11:54:17Z</time>
      </trkpt>
      <trkpt lat="43.79933" lon="-1.0411">
        <ele>63.58</ele>
        <time>2026-05-01T11:54:35Z</time>
      </trkpt>
      <trkpt lat="43.79919" lon="-1.04088">
        <ele>63.58</ele>
        <time>2026-05-01T11:54:52Z</time>
      </trkpt>
      <trkpt lat="43.79903" lon="-1.04069">
        <ele>63.58</ele>
        <time>2026-05-01T11:55:12Z</time>
      </trkpt>
      <trkpt lat="43.79888" lon="-1.04058">
        <ele>63.58</ele>
        <time>2026-05-01T11:55:28Z</time>
      </trkpt>
      <trkpt lat="43.79873" lon="-1.04047">
        <ele>63.58</ele>
        <time>2026-05-01T11:55:46Z</time>
      </trkpt>
      <trkpt lat="43.79856" lon="-1.04036">
        <ele>63.1</ele>
        <time>2026-05-01T11:56:03Z</time>
      </trkpt>
      <trkpt lat="43.79836" lon="-1.04019">
        <ele>63.1</ele>
        <time>2026-05-01T11:56:22Z</time>
      </trkpt>
      <trkpt lat="43.79824" lon="-1.03997">
        <ele>63.1</ele>
        <time>2026-05-01T11:56:40Z</time>
      </trkpt>
      <trkpt lat="43.7982" lon="-1.0399">
        <ele>63.1</ele>
        <time>2026-05-01T11:56:54Z</time>
      </trkpt>
      <trkpt lat="43.79815" lon="-1.03987">
        <ele>63.1</ele>
        <time>2026-05-01T11:57:22Z</time>
      </trkpt>
      <trkpt lat="43.79814" lon="-1.03987">
        <ele>63.1</ele>
        <time>2026-05-01T11:57:53Z</time>
      </trkpt>
      <trkpt lat="43.79816" lon="-1.03986">
        <ele>63.1</ele>
        <time>2026-05-01T11:58:33Z</time>
      </trkpt>
      <trkpt lat="43.79819" lon="-1.03983">
        <ele>63.1</ele>
        <time>2026-05-01T11:58:56Z</time>
      </trkpt>
      <trkpt lat="43.79819" lon="-1.03979">
        <ele>63.1</ele>
        <time>2026-05-01T11:59:15Z</time>
      </trkpt>
      <trkpt lat="43.79819" lon="-1.03977">
        <ele>64.07</ele>
        <time>2026-05-01T11:59:37Z</time>
      </trkpt>
      <trkpt lat="43.79821" lon="-1.03981">
        <ele>64.07</ele>
        <time>2026-05-01T12:00:06Z</time>
      </trkpt>
      <trkpt lat="43.7982" lon="-1.03982">
        <ele>64.07</ele>
        <time>2026-05-01T12:00:33Z</time>
      </trkpt>
      <trkpt lat="43.79817" lon="-1.03983">
        <ele>64.07</ele>
        <time>2026-05-01T12:00:58Z</time>
      </trkpt>
      <trkpt lat="43.79812" lon="-1.03982">
        <ele>64.07</ele>
        <time>2026-05-01T12:01:26Z</time>
      </trkpt>
      <trkpt lat="43.79811" lon="-1.03979">
        <ele>64.07</ele>
        <time>2026-05-01T12:01:58Z</time>
      </trkpt>
      <trkpt lat="43.79805" lon="-1.03965">
        <ele>64.07</ele>
        <time>2026-05-01T12:02:16Z</time>
      </trkpt>
      <trkpt lat="43.79791" lon="-1.03954">
        <ele>64.55</ele>
        <time>2026-05-01T12:02:37Z</time>
      </trkpt>
      <trkpt lat="43.7977" lon="-1.03949">
        <ele>65.03</ele>
        <time>2026-05-01T12:02:59Z</time>
      </trkpt>
      <trkpt lat="43.79753" lon="-1.03952">
        <ele>65.03</ele>
        <time>2026-05-01T12:03:18Z</time>
      </trkpt>
      <trkpt lat="43.79735" lon="-1.03953">
        <ele>64.07</ele>
        <time>2026-05-01T12:03:36Z</time>
      </trkpt>
      <trkpt lat="43.79734" lon="-1.03953">
        <ele>63.58</ele>
        <time>2026-05-01T12:03:38Z</time>
      </trkpt>
      <trkpt lat="43.7971" lon="-1.03956">
        <ele>63.1</ele>
        <time>2026-05-01T12:03:58Z</time>
      </trkpt>
      <trkpt lat="43.79707" lon="-1.03956">
        <ele>62.62</ele>
        <time>2026-05-01T12:04:01Z</time>
      </trkpt>
      <trkpt lat="43.79687" lon="-1.03945">
        <ele>62.62</ele>
        <time>2026-05-01T12:04:21Z</time>
      </trkpt>
      <trkpt lat="43.79662" lon="-1.03935">
        <ele>62.14</ele>
        <time>2026-05-01T12:04:42Z</time>
      </trkpt>
      <trkpt lat="43.79645" lon="-1.03928">
        <ele>62.14</ele>
        <time>2026-05-01T12:04:58Z</time>
      </trkpt>
      <trkpt lat="43.79627" lon="-1.03921">
        <ele>62.14</ele>
        <time>2026-05-01T12:05:15Z</time>
      </trkpt>
      <trkpt lat="43.79617" lon="-1.03922">
        <ele>61.18</ele>
        <time>2026-05-01T12:05:32Z</time>
      </trkpt>
      <trkpt lat="43.796" lon="-1.03917">
        <ele>61.18</ele>
        <time>2026-05-01T12:05:50Z</time>
      </trkpt>
      <trkpt lat="43.79581" lon="-1.03914">
        <ele>61.18</ele>
        <time>2026-05-01T12:06:06Z</time>
      </trkpt>
      <trkpt lat="43.79557" lon="-1.03914">
        <ele>61.18</ele>
        <time>2026-05-01T12:06:24Z</time>
      </trkpt>
      <trkpt lat="43.7954" lon="-1.03911">
        <ele>60.7</ele>
        <time>2026-05-01T12:06:40Z</time>
      </trkpt>
      <trkpt lat="43.79525" lon="-1.03907">
        <ele>60.7</ele>
        <time>2026-05-01T12:07:00Z</time>
      </trkpt>
      <trkpt lat="43.7952" lon="-1.03903">
        <ele>60.7</ele>
        <time>2026-05-01T12:07:20Z</time>
      </trkpt>
      <trkpt lat="43.79519" lon="-1.03903">
        <ele>60.22</ele>
        <time>2026-05-01T12:08:05Z</time>
      </trkpt>
      <trkpt lat="43.79517" lon="-1.03897">
        <ele>60.22</ele>
        <time>2026-05-01T12:08:31Z</time>
      </trkpt>
      <trkpt lat="43.79519" lon="-1.03899">
        <ele>60.22</ele>
        <time>2026-05-01T12:08:50Z</time>
      </trkpt>
      <trkpt lat="43.79519" lon="-1.0389">
        <ele>61.66</ele>
        <time>2026-05-01T12:09:10Z</time>
      </trkpt>
      <trkpt lat="43.79524" lon="-1.03884">
        <ele>61.66</ele>
        <time>2026-05-01T12:09:18Z</time>
      </trkpt>
      <trkpt lat="43.79519" lon="-1.03877">
        <ele>61.66</ele>
        <time>2026-05-01T12:09:26Z</time>
      </trkpt>
      <trkpt lat="43.79517" lon="-1.03873">
        <ele>61.66</ele>
        <time>2026-05-01T12:09:30Z</time>
      </trkpt>
      <trkpt lat="43.79514" lon="-1.03864">
        <ele>61.66</ele>
        <time>2026-05-01T12:09:45Z</time>
      </trkpt>
      <trkpt lat="43.79513" lon="-1.03863">
        <ele>61.66</ele>
        <time>2026-05-01T12:10:15Z</time>
      </trkpt>
      <trkpt lat="43.79513" lon="-1.03861">
        <ele>60.22</ele>
        <time>2026-05-01T12:10:33Z</time>
      </trkpt>
      <trkpt lat="43.79517" lon="-1.03857">
        <ele>59.74</ele>
        <time>2026-05-01T12:11:06Z</time>
      </trkpt>
      <trkpt lat="43.79513" lon="-1.03861">
        <ele>59.74</ele>
        <time>2026-05-01T12:11:39Z</time>
      </trkpt>
      <trkpt lat="43.79513" lon="-1.03863">
        <ele>60.22</ele>
        <time>2026-05-01T12:11:58Z</time>
      </trkpt>
      <trkpt lat="43.79516" lon="-1.03854">
        <ele>60.22</ele>
        <time>2026-05-01T12:12:16Z</time>
      </trkpt>
      <trkpt lat="43.79518" lon="-1.03833">
        <ele>61.18</ele>
        <time>2026-05-01T12:12:33Z</time>
      </trkpt>
      <trkpt lat="43.79517" lon="-1.03802">
        <ele>61.18</ele>
        <time>2026-05-01T12:12:53Z</time>
      </trkpt>
      <trkpt lat="43.79507" lon="-1.03773">
        <ele>61.18</ele>
        <time>2026-05-01T12:13:12Z</time>
      </trkpt>
      <trkpt lat="43.79492" lon="-1.03747">
        <ele>61.18</ele>
        <time>2026-05-01T12:13:30Z</time>
      </trkpt>
      <trkpt lat="43.79477" lon="-1.03717">
        <ele>61.66</ele>
        <time>2026-05-01T12:13:49Z</time>
      </trkpt>
      <trkpt lat="43.79474" lon="-1.03712">
        <ele>61.66</ele>
        <time>2026-05-01T12:14:12Z</time>
      </trkpt>
      <trkpt lat="43.79473" lon="-1.03701">
        <ele>61.18</ele>
        <time>2026-05-01T12:14:34Z</time>
      </trkpt>
      <trkpt lat="43.79472" lon="-1.03695">
        <ele>61.18</ele>
        <time>2026-05-01T12:15:06Z</time>
      </trkpt>
      <trkpt lat="43.79474" lon="-1.03699">
        <ele>60.7</ele>
        <time>2026-05-01T12:15:43Z</time>
      </trkpt>
      <trkpt lat="43.79476" lon="-1.037">
        <ele>60.7</ele>
        <time>2026-05-01T12:16:01Z</time>
      </trkpt>
      <trkpt lat="43.79477" lon="-1.03704">
        <ele>60.7</ele>
        <time>2026-05-01T12:16:29Z</time>
      </trkpt>
      <trkpt lat="43.79475" lon="-1.03701">
        <ele>60.7</ele>
        <time>2026-05-01T12:16:55Z</time>
      </trkpt>
      <trkpt lat="43.79478" lon="-1.037">
        <ele>60.7</ele>
        <time>2026-05-01T12:17:21Z</time>
      </trkpt>
      <trkpt lat="43.79479" lon="-1.03689">
        <ele>60.7</ele>
        <time>2026-05-01T12:17:36Z</time>
      </trkpt>
      <trkpt lat="43.79483" lon="-1.03685">
        <ele>60.7</ele>
        <time>2026-05-01T12:17:51Z</time>
      </trkpt>
      <trkpt lat="43.7948" lon="-1.03681">
        <ele>60.7</ele>
        <time>2026-05-01T12:18:08Z</time>
      </trkpt>
      <trkpt lat="43.79472" lon="-1.03672">
        <ele>60.7</ele>
        <time>2026-05-01T12:18:28Z</time>
      </trkpt>
      <trkpt lat="43.79472" lon="-1.0365">
        <ele>60.7</ele>
        <time>2026-05-01T12:18:44Z</time>
      </trkpt>
      <trkpt lat="43.79463" lon="-1.03618">
        <ele>60.7</ele>
        <time>2026-05-01T12:19:03Z</time>
      </trkpt>
      <trkpt lat="43.79454" lon="-1.03599">
        <ele>60.7</ele>
        <time>2026-05-01T12:19:18Z</time>
      </trkpt>
      <trkpt lat="43.79445" lon="-1.03567">
        <ele>59.74</ele>
        <time>2026-05-01T12:19:38Z</time>
      </trkpt>
      <trkpt lat="43.79436" lon="-1.03544">
        <ele>59.74</ele>
        <time>2026-05-01T12:19:58Z</time>
      </trkpt>
      <trkpt lat="43.79433" lon="-1.03529">
        <ele>59.74</ele>
        <time>2026-05-01T12:20:20Z</time>
      </trkpt>
      <trkpt lat="43.79427" lon="-1.03516">
        <ele>59.74</ele>
        <time>2026-05-01T12:20:37Z</time>
      </trkpt>
      <trkpt lat="43.79405" lon="-1.03517">
        <ele>59.74</ele>
        <time>2026-05-01T12:20:57Z</time>
      </trkpt>
      <trkpt lat="43.79404" lon="-1.03518">
        <ele>59.74</ele>
        <time>2026-05-01T12:20:58Z</time>
      </trkpt>
      <trkpt lat="43.79378" lon="-1.03523">
        <ele>59.26</ele>
        <time>2026-05-01T12:21:19Z</time>
      </trkpt>
      <trkpt lat="43.79352" lon="-1.03524">
        <ele>58.78</ele>
        <time>2026-05-01T12:21:41Z</time>
      </trkpt>
      <trkpt lat="43.79325" lon="-1.03521">
        <ele>58.3</ele>
        <time>2026-05-01T12:22:02Z</time>
      </trkpt>
      <trkpt lat="43.79299" lon="-1.0352">
        <ele>57.82</ele>
        <time>2026-05-01T12:22:24Z</time>
      </trkpt>
      <trkpt lat="43.79273" lon="-1.03522">
        <ele>57.82</ele>
        <time>2026-05-01T12:22:44Z</time>
      </trkpt>
      <trkpt lat="43.79249" lon="-1.03524">
        <ele>57.82</ele>
        <time>2026-05-01T12:23:05Z</time>
      </trkpt>
      <trkpt lat="43.79228" lon="-1.03523">
        <ele>57.34</ele>
        <time>2026-05-01T12:23:23Z</time>
      </trkpt>
      <trkpt lat="43.79203" lon="-1.03523">
        <ele>57.34</ele>
        <time>2026-05-01T12:23:45Z</time>
      </trkpt>
      <trkpt lat="43.79177" lon="-1.03523">
        <ele>56.37</ele>
        <time>2026-05-01T12:24:06Z</time>
      </trkpt>
      <trkpt lat="43.79152" lon="-1.03521">
        <ele>56.37</ele>
        <time>2026-05-01T12:24:26Z</time>
      </trkpt>
      <trkpt lat="43.79128" lon="-1.03519">
        <ele>56.37</ele>
        <time>2026-05-01T12:24:46Z</time>
      </trkpt>
      <trkpt lat="43.79102" lon="-1.03516">
        <ele>55.41</ele>
        <time>2026-05-01T12:25:08Z</time>
      </trkpt>
      <trkpt lat="43.79081" lon="-1.03511">
        <ele>55.41</ele>
        <time>2026-05-01T12:25:25Z</time>
      </trkpt>
      <trkpt lat="43.79053" lon="-1.0351">
        <ele>54.93</ele>
        <time>2026-05-01T12:25:45Z</time>
      </trkpt>
      <trkpt lat="43.79026" lon="-1.03505">
        <ele>54.45</ele>
        <time>2026-05-01T12:26:07Z</time>
      </trkpt>
      <trkpt lat="43.79" lon="-1.035">
        <ele>54.45</ele>
        <time>2026-05-01T12:26:29Z</time>
      </trkpt>
      <trkpt lat="43.78974" lon="-1.03495">
        <ele>54.45</ele>
        <time>2026-05-01T12:26:52Z</time>
      </trkpt>
      <trkpt lat="43.7895" lon="-1.03494">
        <ele>54.45</ele>
        <time>2026-05-01T12:27:13Z</time>
      </trkpt>
      <trkpt lat="43.78925" lon="-1.03486">
        <ele>53.97</ele>
        <time>2026-05-01T12:27:35Z</time>
      </trkpt>
      <trkpt lat="43.78897" lon="-1.03477">
        <ele>53.01</ele>
        <time>2026-05-01T12:28:00Z</time>
      </trkpt>
      <trkpt lat="43.78872" lon="-1.03475">
        <ele>52.53</ele>
        <time>2026-05-01T12:28:20Z</time>
      </trkpt>
      <trkpt lat="43.78866" lon="-1.03475">
        <ele>52.53</ele>
        <time>2026-05-01T12:28:25Z</time>
      </trkpt>
      <trkpt lat="43.78852" lon="-1.0348">
        <ele>52.53</ele>
        <time>2026-05-01T12:28:45Z</time>
      </trkpt>
      <trkpt lat="43.78851" lon="-1.03483">
        <ele>52.05</ele>
        <time>2026-05-01T12:29:18Z</time>
      </trkpt>
      <trkpt lat="43.78847" lon="-1.03477">
        <ele>52.05</ele>
        <time>2026-05-01T12:29:54Z</time>
      </trkpt>
      <trkpt lat="43.78848" lon="-1.03479">
        <ele>51.57</ele>
        <time>2026-05-01T12:30:22Z</time>
      </trkpt>
      <trkpt lat="43.78848" lon="-1.03479">
        <ele>51.57</ele>
        <time>2026-05-01T12:30:49Z</time>
      </trkpt>
      <trkpt lat="43.78853" lon="-1.03475">
        <ele>51.57</ele>
        <time>2026-05-01T12:31:24Z</time>
      </trkpt>
      <trkpt lat="43.78848" lon="-1.03489">
        <ele>51.57</ele>
        <time>2026-05-01T12:31:38Z</time>
      </trkpt>
      <trkpt lat="43.78841" lon="-1.03497">
        <ele>51.57</ele>
        <time>2026-05-01T12:31:45Z</time>
      </trkpt>
      <trkpt lat="43.78829" lon="-1.03519">
        <ele>51.09</ele>
        <time>2026-05-01T12:32:03Z</time>
      </trkpt>
      <trkpt lat="43.78818" lon="-1.03532">
        <ele>51.09</ele>
        <time>2026-05-01T12:32:21Z</time>
      </trkpt>
      <trkpt lat="43.78817" lon="-1.03533">
        <ele>51.09</ele>
        <time>2026-05-01T12:32:23Z</time>
      </trkpt>
      <trkpt lat="43.78812" lon="-1.0354">
        <ele>51.09</ele>
        <time>2026-05-01T12:32:30Z</time>
      </trkpt>
      <trkpt lat="43.78801" lon="-1.03557">
        <ele>51.09</ele>
        <time>2026-05-01T12:32:53Z</time>
      </trkpt>
      <trkpt lat="43.78797" lon="-1.03572">
        <ele>51.09</ele>
        <time>2026-05-01T12:33:11Z</time>
      </trkpt>
      <trkpt lat="43.78783" lon="-1.03594">
        <ele>50.61</ele>
        <time>2026-05-01T12:33:29Z</time>
      </trkpt>
      <trkpt lat="43.78768" lon="-1.03616">
        <ele>50.61</ele>
        <time>2026-05-01T12:33:51Z</time>
      </trkpt>
      <trkpt lat="43.78755" lon="-1.03646">
        <ele>50.13</ele>
        <time>2026-05-01T12:34:14Z</time>
      </trkpt>
      <trkpt lat="43.78736" lon="-1.0367">
        <ele>50.13</ele>
        <time>2026-05-01T12:34:35Z</time>
      </trkpt>
      <trkpt lat="43.78724" lon="-1.03687">
        <ele>50.13</ele>
        <time>2026-05-01T12:34:48Z</time>
      </trkpt>
      <trkpt lat="43.78719" lon="-1.03694">
        <ele>50.13</ele>
        <time>2026-05-01T12:34:54Z</time>
      </trkpt>
      <trkpt lat="43.78703" lon="-1.03724">
        <ele>50.13</ele>
        <time>2026-05-01T12:35:15Z</time>
      </trkpt>
      <trkpt lat="43.78695" lon="-1.03746">
        <ele>50.61</ele>
        <time>2026-05-01T12:35:30Z</time>
      </trkpt>
      <trkpt lat="43.78693" lon="-1.03752">
        <ele>50.61</ele>
        <time>2026-05-01T12:35:34Z</time>
      </trkpt>
      <trkpt lat="43.78678" lon="-1.03776">
        <ele>50.13</ele>
        <time>2026-05-01T12:35:52Z</time>
      </trkpt>
      <trkpt lat="43.78663" lon="-1.03808">
        <ele>49.65</ele>
        <time>2026-05-01T12:36:12Z</time>
      </trkpt>
      <trkpt lat="43.78654" lon="-1.03842">
        <ele>49.16</ele>
        <time>2026-05-01T12:36:33Z</time>
      </trkpt>
      <trkpt lat="43.78654" lon="-1.03865">
        <ele>49.16</ele>
        <time>2026-05-01T12:36:48Z</time>
      </trkpt>
      <trkpt lat="43.78656" lon="-1.03894">
        <ele>47.72</ele>
        <time>2026-05-01T12:37:08Z</time>
      </trkpt>
      <trkpt lat="43.78658" lon="-1.03898">
        <ele>47.72</ele>
        <time>2026-05-01T12:37:10Z</time>
      </trkpt>
      <trkpt lat="43.78665" lon="-1.03929">
        <ele>47.72</ele>
        <time>2026-05-01T12:37:30Z</time>
      </trkpt>
      <trkpt lat="43.78668" lon="-1.03958">
        <ele>47.24</ele>
        <time>2026-05-01T12:37:48Z</time>
      </trkpt>
      <trkpt lat="43.78664" lon="-1.03976">
        <ele>47.24</ele>
        <time>2026-05-01T12:38:00Z</time>
      </trkpt>
      <trkpt lat="43.78662" lon="-1.04004">
        <ele>46.76</ele>
        <time>2026-05-01T12:38:18Z</time>
      </trkpt>
      <trkpt lat="43.78652" lon="-1.04031">
        <ele>46.28</ele>
        <time>2026-05-01T12:38:39Z</time>
      </trkpt>
      <trkpt lat="43.78641" lon="-1.04054">
        <ele>45.8</ele>
        <time>2026-05-01T12:38:58Z</time>
      </trkpt>
      <trkpt lat="43.7864" lon="-1.04057">
        <ele>45.8</ele>
        <time>2026-05-01T12:39:00Z</time>
      </trkpt>
      <trkpt lat="43.78626" lon="-1.04089">
        <ele>45.32</ele>
        <time>2026-05-01T12:39:22Z</time>
      </trkpt>
      <trkpt lat="43.78609" lon="-1.0412">
        <ele>43.88</ele>
        <time>2026-05-01T12:39:45Z</time>
      </trkpt>
      <trkpt lat="43.78592" lon="-1.04142">
        <ele>43.4</ele>
        <time>2026-05-01T12:40:03Z</time>
      </trkpt>
      <trkpt lat="43.78574" lon="-1.04168">
        <ele>42.44</ele>
        <time>2026-05-01T12:40:23Z</time>
      </trkpt>
      <trkpt lat="43.7856" lon="-1.04194">
        <ele>41.95</ele>
        <time>2026-05-01T12:40:43Z</time>
      </trkpt>
      <trkpt lat="43.78545" lon="-1.04223">
        <ele>41.95</ele>
        <time>2026-05-01T12:41:05Z</time>
      </trkpt>
      <trkpt lat="43.78531" lon="-1.04249">
        <ele>40.99</ele>
        <time>2026-05-01T12:41:24Z</time>
      </trkpt>
      <trkpt lat="43.7852" lon="-1.04275">
        <ele>40.51</ele>
        <time>2026-05-01T12:41:42Z</time>
      </trkpt>
      <trkpt lat="43.78489" lon="-1.04295">
        <ele>39.55</ele>
        <time>2026-05-01T12:42:04Z</time>
      </trkpt>
      <trkpt lat="43.78464" lon="-1.04298">
        <ele>39.55</ele>
        <time>2026-05-01T12:42:22Z</time>
      </trkpt>
      <trkpt lat="43.7844" lon="-1.04295">
        <ele>39.55</ele>
        <time>2026-05-01T12:42:43Z</time>
      </trkpt>
      <trkpt lat="43.78417" lon="-1.04287">
        <ele>39.07</ele>
        <time>2026-05-01T12:43:04Z</time>
      </trkpt>
      <trkpt lat="43.78391" lon="-1.04285">
        <ele>39.07</ele>
        <time>2026-05-01T12:43:25Z</time>
      </trkpt>
      <trkpt lat="43.78368" lon="-1.04287">
        <ele>39.07</ele>
        <time>2026-05-01T12:43:45Z</time>
      </trkpt>
      <trkpt lat="43.78348" lon="-1.04299">
        <ele>38.59</ele>
        <time>2026-05-01T12:44:04Z</time>
      </trkpt>
      <trkpt lat="43.78324" lon="-1.04315">
        <ele>37.63</ele>
        <time>2026-05-01T12:44:25Z</time>
      </trkpt>
      <trkpt lat="43.78311" lon="-1.04321">
        <ele>37.63</ele>
        <time>2026-05-01T12:44:35Z</time>
      </trkpt>
      <trkpt lat="43.78283" lon="-1.04325">
        <ele>36.67</ele>
        <time>2026-05-01T12:45:00Z</time>
      </trkpt>
      <trkpt lat="43.78254" lon="-1.04331">
        <ele>35.23</ele>
        <time>2026-05-01T12:45:23Z</time>
      </trkpt>
      <trkpt lat="43.78252" lon="-1.04333">
        <ele>35.23</ele>
        <time>2026-05-01T12:45:25Z</time>
      </trkpt>
      <trkpt lat="43.78239" lon="-1.04354">
        <ele>34.74</ele>
        <time>2026-05-01T12:45:44Z</time>
      </trkpt>
      <trkpt lat="43.78229" lon="-1.0438">
        <ele>34.26</ele>
        <time>2026-05-01T12:46:04Z</time>
      </trkpt>
      <trkpt lat="43.78217" lon="-1.04408">
        <ele>34.26</ele>
        <time>2026-05-01T12:46:25Z</time>
      </trkpt>
      <trkpt lat="43.78204" lon="-1.04435">
        <ele>33.78</ele>
        <time>2026-05-01T12:46:43Z</time>
      </trkpt>
      <trkpt lat="43.78194" lon="-1.04461">
        <ele>32.82</ele>
        <time>2026-05-01T12:47:02Z</time>
      </trkpt>
      <trkpt lat="43.78181" lon="-1.04492">
        <ele>31.38</ele>
        <time>2026-05-01T12:47:22Z</time>
      </trkpt>
      <trkpt lat="43.78173" lon="-1.04517">
        <ele>29.46</ele>
        <time>2026-05-01T12:47:38Z</time>
      </trkpt>
      <trkpt lat="43.78166" lon="-1.04544">
        <ele>27.53</ele>
        <time>2026-05-01T12:47:55Z</time>
      </trkpt>
      <trkpt lat="43.78153" lon="-1.04579">
        <ele>27.05</ele>
        <time>2026-05-01T12:48:15Z</time>
      </trkpt>
      <trkpt lat="43.78144" lon="-1.04602">
        <ele>28.5</ele>
        <time>2026-05-01T12:48:31Z</time>
      </trkpt>
      <trkpt lat="43.78131" lon="-1.04622">
        <ele>30.42</ele>
        <time>2026-05-01T12:48:52Z</time>
      </trkpt>
      <trkpt lat="43.78119" lon="-1.04652">
        <ele>32.82</ele>
        <time>2026-05-01T12:49:16Z</time>
      </trkpt>
      <trkpt lat="43.78117" lon="-1.04675">
        <ele>34.74</ele>
        <time>2026-05-01T12:49:33Z</time>
      </trkpt>
      <trkpt lat="43.78119" lon="-1.04701">
        <ele>35.71</ele>
        <time>2026-05-01T12:49:51Z</time>
      </trkpt>
      <trkpt lat="43.78115" lon="-1.04733">
        <ele>35.71</ele>
        <time>2026-05-01T12:50:13Z</time>
      </trkpt>
      <trkpt lat="43.7811" lon="-1.04764">
        <ele>35.71</ele>
        <time>2026-05-01T12:50:33Z</time>
      </trkpt>
      <trkpt lat="43.78107" lon="-1.04796">
        <ele>35.71</ele>
        <time>2026-05-01T12:50:55Z</time>
      </trkpt>
      <trkpt lat="43.78102" lon="-1.04833">
        <ele>35.71</ele>
        <time>2026-05-01T12:51:17Z</time>
      </trkpt>
      <trkpt lat="43.78099" lon="-1.0486">
        <ele>35.71</ele>
        <time>2026-05-01T12:51:38Z</time>
      </trkpt>
      <trkpt lat="43.781" lon="-1.04859">
        <ele>35.71</ele>
        <time>2026-05-01T12:52:02Z</time>
      </trkpt>
      <trkpt lat="43.781" lon="-1.04874">
        <ele>35.71</ele>
        <time>2026-05-01T12:52:16Z</time>
      </trkpt>
      <trkpt lat="43.78102" lon="-1.04879">
        <ele>35.71</ele>
        <time>2026-05-01T12:52:20Z</time>
      </trkpt>
      <trkpt lat="43.78106" lon="-1.04904">
        <ele>36.19</ele>
        <time>2026-05-01T12:52:37Z</time>
      </trkpt>
      <trkpt lat="43.78111" lon="-1.0493">
        <ele>36.67</ele>
        <time>2026-05-01T12:52:55Z</time>
      </trkpt>
      <trkpt lat="43.78116" lon="-1.04959">
        <ele>37.15</ele>
        <time>2026-05-01T12:53:14Z</time>
      </trkpt>
      <trkpt lat="43.78112" lon="-1.04978">
        <ele>37.63</ele>
        <time>2026-05-01T12:53:30Z</time>
      </trkpt>
      <trkpt lat="43.78101" lon="-1.04976">
        <ele>38.59</ele>
        <time>2026-05-01T12:53:55Z</time>
      </trkpt>
      <trkpt lat="43.78078" lon="-1.04971">
        <ele>37.15</ele>
        <time>2026-05-01T12:54:16Z</time>
      </trkpt>
      <trkpt lat="43.78056" lon="-1.04966">
        <ele>37.15</ele>
        <time>2026-05-01T12:54:35Z</time>
      </trkpt>
      <trkpt lat="43.78027" lon="-1.04972">
        <ele>37.15</ele>
        <time>2026-05-01T12:54:55Z</time>
      </trkpt>
      <trkpt lat="43.78009" lon="-1.04978">
        <ele>37.15</ele>
        <time>2026-05-01T12:55:12Z</time>
      </trkpt>
      <trkpt lat="43.78005" lon="-1.04978">
        <ele>37.15</ele>
        <time>2026-05-01T12:55:15Z</time>
      </trkpt>
      <trkpt lat="43.77986" lon="-1.04962">
        <ele>37.15</ele>
        <time>2026-05-01T12:55:33Z</time>
      </trkpt>
      <trkpt lat="43.77981" lon="-1.04927">
        <ele>36.19</ele>
        <time>2026-05-01T12:55:54Z</time>
      </trkpt>
      <trkpt lat="43.7797" lon="-1.04901">
        <ele>36.19</ele>
        <time>2026-05-01T12:56:12Z</time>
      </trkpt>
      <trkpt lat="43.77967" lon="-1.04899">
        <ele>36.19</ele>
        <time>2026-05-01T12:56:15Z</time>
      </trkpt>
      <trkpt lat="43.77946" lon="-1.04892">
        <ele>35.23</ele>
        <time>2026-05-01T12:56:33Z</time>
      </trkpt>
      <trkpt lat="43.77926" lon="-1.0489">
        <ele>35.23</ele>
        <time>2026-05-01T12:56:49Z</time>
      </trkpt>
      <trkpt lat="43.77905" lon="-1.0489">
        <ele>35.23</ele>
        <time>2026-05-01T12:57:09Z</time>
      </trkpt>
      <trkpt lat="43.77883" lon="-1.04893">
        <ele>35.23</ele>
        <time>2026-05-01T12:57:30Z</time>
      </trkpt>
      <trkpt lat="43.77865" lon="-1.04904">
        <ele>36.19</ele>
        <time>2026-05-01T12:57:48Z</time>
      </trkpt>
      <trkpt lat="43.77853" lon="-1.04914">
        <ele>36.19</ele>
        <time>2026-05-01T12:58:01Z</time>
      </trkpt>
      <trkpt lat="43.77833" lon="-1.04932">
        <ele>36.19</ele>
        <time>2026-05-01T12:58:21Z</time>
      </trkpt>
      <trkpt lat="43.77814" lon="-1.04951">
        <ele>36.19</ele>
        <time>2026-05-01T12:58:42Z</time>
      </trkpt>
      <trkpt lat="43.77798" lon="-1.04965">
        <ele>36.67</ele>
        <time>2026-05-01T12:59:00Z</time>
      </trkpt>
      <trkpt lat="43.7779" lon="-1.04972">
        <ele>35.23</ele>
        <time>2026-05-01T12:59:08Z</time>
      </trkpt>
      <trkpt lat="43.77775" lon="-1.04985">
        <ele>34.74</ele>
        <time>2026-05-01T12:59:24Z</time>
      </trkpt>
      <trkpt lat="43.77755" lon="-1.05004">
        <ele>34.74</ele>
        <time>2026-05-01T12:59:45Z</time>
      </trkpt>
      <trkpt lat="43.77749" lon="-1.05009">
        <ele>34.74</ele>
        <time>2026-05-01T12:59:51Z</time>
      </trkpt>
      <trkpt lat="43.77735" lon="-1.05021">
        <ele>34.74</ele>
        <time>2026-05-01T13:00:08Z</time>
      </trkpt>
      <trkpt lat="43.77718" lon="-1.05037">
        <ele>34.74</ele>
        <time>2026-05-01T13:00:27Z</time>
      </trkpt>
      <trkpt lat="43.77701" lon="-1.05054">
        <ele>34.74</ele>
        <time>2026-05-01T13:00:46Z</time>
      </trkpt>
      <trkpt lat="43.77685" lon="-1.05069">
        <ele>34.74</ele>
        <time>2026-05-01T13:01:05Z</time>
      </trkpt>
      <trkpt lat="43.77666" lon="-1.0509">
        <ele>34.74</ele>
        <time>2026-05-01T13:01:26Z</time>
      </trkpt>
      <trkpt lat="43.77649" lon="-1.05101">
        <ele>34.74</ele>
        <time>2026-05-01T13:01:43Z</time>
      </trkpt>
      <trkpt lat="43.77635" lon="-1.05109">
        <ele>34.74</ele>
        <time>2026-05-01T13:02:01Z</time>
      </trkpt>
      <trkpt lat="43.7763" lon="-1.05098">
        <ele>34.74</ele>
        <time>2026-05-01T13:02:16Z</time>
      </trkpt>
      <trkpt lat="43.77625" lon="-1.05081">
        <ele>34.74</ele>
        <time>2026-05-01T13:02:31Z</time>
      </trkpt>
      <trkpt lat="43.7761" lon="-1.05052">
        <ele>36.67</ele>
        <time>2026-05-01T13:02:54Z</time>
      </trkpt>
      <trkpt lat="43.77601" lon="-1.05045">
        <ele>37.63</ele>
        <time>2026-05-01T13:03:05Z</time>
      </trkpt>
      <trkpt lat="43.77579" lon="-1.05033">
        <ele>38.11</ele>
        <time>2026-05-01T13:03:25Z</time>
      </trkpt>
      <trkpt lat="43.77558" lon="-1.05023">
        <ele>38.11</ele>
        <time>2026-05-01T13:03:44Z</time>
      </trkpt>
      <trkpt lat="43.77535" lon="-1.0501">
        <ele>38.59</ele>
        <time>2026-05-01T13:04:05Z</time>
      </trkpt>
      <trkpt lat="43.77518" lon="-1.04995">
        <ele>37.63</ele>
        <time>2026-05-01T13:04:24Z</time>
      </trkpt>
      <trkpt lat="43.77499" lon="-1.04982">
        <ele>36.67</ele>
        <time>2026-05-01T13:04:43Z</time>
      </trkpt>
      <trkpt lat="43.77478" lon="-1.04972">
        <ele>35.71</ele>
        <time>2026-05-01T13:05:03Z</time>
      </trkpt>
      <trkpt lat="43.77474" lon="-1.04971">
        <ele>35.23</ele>
        <time>2026-05-01T13:05:07Z</time>
      </trkpt>
      <trkpt lat="43.77455" lon="-1.04949">
        <ele>34.26</ele>
        <time>2026-05-01T13:05:27Z</time>
      </trkpt>
      <trkpt lat="43.77434" lon="-1.04938">
        <ele>34.26</ele>
        <time>2026-05-01T13:05:47Z</time>
      </trkpt>
      <trkpt lat="43.77417" lon="-1.04934">
        <ele>33.3</ele>
        <time>2026-05-01T13:06:04Z</time>
      </trkpt>
      <trkpt lat="43.77398" lon="-1.04929">
        <ele>33.3</ele>
        <time>2026-05-01T13:06:22Z</time>
      </trkpt>
      <trkpt lat="43.77381" lon="-1.04922">
        <ele>33.3</ele>
        <time>2026-05-01T13:06:43Z</time>
      </trkpt>
      <trkpt lat="43.77373" lon="-1.04926">
        <ele>32.82</ele>
        <time>2026-05-01T13:07:07Z</time>
      </trkpt>
      <trkpt lat="43.77363" lon="-1.04924">
        <ele>32.82</ele>
        <time>2026-05-01T13:07:21Z</time>
      </trkpt>
      <trkpt lat="43.77366" lon="-1.04919">
        <ele>32.82</ele>
        <time>2026-05-01T13:07:45Z</time>
      </trkpt>
      <trkpt lat="43.77357" lon="-1.04914">
        <ele>32.82</ele>
        <time>2026-05-01T13:08:16Z</time>
      </trkpt>
      <trkpt lat="43.77345" lon="-1.04911">
        <ele>31.86</ele>
        <time>2026-05-01T13:08:28Z</time>
      </trkpt>
      <trkpt lat="43.77342" lon="-1.04909">
        <ele>31.86</ele>
        <time>2026-05-01T13:08:31Z</time>
      </trkpt>
      <trkpt lat="43.77326" lon="-1.04904">
        <ele>30.9</ele>
        <time>2026-05-01T13:08:48Z</time>
      </trkpt>
      <trkpt lat="43.77323" lon="-1.04904">
        <ele>32.34</ele>
        <time>2026-05-01T13:09:04Z</time>
      </trkpt>
      <trkpt lat="43.77321" lon="-1.04903">
        <ele>32.34</ele>
        <time>2026-05-01T13:09:40Z</time>
      </trkpt>
      <trkpt lat="43.77308" lon="-1.04902">
        <ele>30.9</ele>
        <time>2026-05-01T13:09:55Z</time>
      </trkpt>
      <trkpt lat="43.77292" lon="-1.04903">
        <ele>30.42</ele>
        <time>2026-05-01T13:10:16Z</time>
      </trkpt>
      <trkpt lat="43.77275" lon="-1.04901">
        <ele>30.42</ele>
        <time>2026-05-01T13:10:34Z</time>
      </trkpt>
      <trkpt lat="43.77249" lon="-1.049">
        <ele>29.94</ele>
        <time>2026-05-01T13:10:54Z</time>
      </trkpt>
      <trkpt lat="43.77242" lon="-1.04898">
        <ele>28.5</ele>
        <time>2026-05-01T13:11:13Z</time>
      </trkpt>
      <trkpt lat="43.77239" lon="-1.04903">
        <ele>28.5</ele>
        <time>2026-05-01T13:11:51Z</time>
      </trkpt>
      <trkpt lat="43.77244" lon="-1.04901">
        <ele>28.5</ele>
        <time>2026-05-01T13:12:18Z</time>
      </trkpt>
      <trkpt lat="43.77242" lon="-1.049">
        <ele>28.98</ele>
        <time>2026-05-01T13:12:37Z</time>
      </trkpt>
      <trkpt lat="43.7722" lon="-1.04894">
        <ele>28.98</ele>
        <time>2026-05-01T13:12:54Z</time>
      </trkpt>
      <trkpt lat="43.77203" lon="-1.04895">
        <ele>28.02</ele>
        <time>2026-05-01T13:13:12Z</time>
      </trkpt>
      <trkpt lat="43.77181" lon="-1.04888">
        <ele>28.02</ele>
        <time>2026-05-01T13:13:32Z</time>
      </trkpt>
      <trkpt lat="43.77165" lon="-1.04874">
        <ele>27.05</ele>
        <time>2026-05-01T13:13:49Z</time>
      </trkpt>
      <trkpt lat="43.77149" lon="-1.04859">
        <ele>27.05</ele>
        <time>2026-05-01T13:14:07Z</time>
      </trkpt>
      <trkpt lat="43.77139" lon="-1.04838">
        <ele>26.57</ele>
        <time>2026-05-01T13:14:26Z</time>
      </trkpt>
      <trkpt lat="43.77133" lon="-1.04807">
        <ele>26.09</ele>
        <time>2026-05-01T13:14:45Z</time>
      </trkpt>
      <trkpt lat="43.77128" lon="-1.04776">
        <ele>26.09</ele>
        <time>2026-05-01T13:15:04Z</time>
      </trkpt>
      <trkpt lat="43.77119" lon="-1.04751">
        <ele>26.09</ele>
        <time>2026-05-01T13:15:23Z</time>
      </trkpt>
      <trkpt lat="43.77118" lon="-1.04746">
        <ele>26.09</ele>
        <time>2026-05-01T13:15:26Z</time>
      </trkpt>
      <trkpt lat="43.77113" lon="-1.04727">
        <ele>25.61</ele>
        <time>2026-05-01T13:15:38Z</time>
      </trkpt>
      <trkpt lat="43.77112" lon="-1.04707">
        <ele>25.61</ele>
        <time>2026-05-01T13:15:52Z</time>
      </trkpt>
      <trkpt lat="43.77107" lon="-1.04679">
        <ele>25.61</ele>
        <time>2026-05-01T13:16:10Z</time>
      </trkpt>
      <trkpt lat="43.77104" lon="-1.04651">
        <ele>25.61</ele>
        <time>2026-05-01T13:16:30Z</time>
      </trkpt>
      <trkpt lat="43.77087" lon="-1.04627">
        <ele>25.61</ele>
        <time>2026-05-01T13:16:49Z</time>
      </trkpt>
      <trkpt lat="43.77073" lon="-1.04612">
        <ele>25.13</ele>
        <time>2026-05-01T13:17:06Z</time>
      </trkpt>
      <trkpt lat="43.77053" lon="-1.04598">
        <ele>24.65</ele>
        <time>2026-05-01T13:17:25Z</time>
      </trkpt>
      <trkpt lat="43.77033" lon="-1.04585">
        <ele>24.17</ele>
        <time>2026-05-01T13:17:43Z</time>
      </trkpt>
      <trkpt lat="43.77016" lon="-1.04578">
        <ele>23.69</ele>
        <time>2026-05-01T13:18:01Z</time>
      </trkpt>
      <trkpt lat="43.77001" lon="-1.04574">
        <ele>23.69</ele>
        <time>2026-05-01T13:18:14Z</time>
      </trkpt>
      <trkpt lat="43.76983" lon="-1.04571">
        <ele>23.21</ele>
        <time>2026-05-01T13:18:32Z</time>
      </trkpt>
      <trkpt lat="43.76972" lon="-1.04571">
        <ele>23.21</ele>
        <time>2026-05-01T13:18:49Z</time>
      </trkpt>
      <trkpt lat="43.76956" lon="-1.04572">
        <ele>23.21</ele>
        <time>2026-05-01T13:19:07Z</time>
      </trkpt>
      <trkpt lat="43.76949" lon="-1.04575">
        <ele>23.21</ele>
        <time>2026-05-01T13:19:14Z</time>
      </trkpt>
      <trkpt lat="43.76945" lon="-1.04576">
        <ele>23.21</ele>
        <time>2026-05-01T13:19:33Z</time>
      </trkpt>
      <trkpt lat="43.76933" lon="-1.04574">
        <ele>24.65</ele>
        <time>2026-05-01T13:19:51Z</time>
      </trkpt>
      <trkpt lat="43.76917" lon="-1.04571">
        <ele>24.65</ele>
        <time>2026-05-01T13:20:07Z</time>
      </trkpt>
      <trkpt lat="43.76888" lon="-1.04586">
        <ele>22.73</ele>
        <time>2026-05-01T13:20:32Z</time>
      </trkpt>
      <trkpt lat="43.7687" lon="-1.04598">
        <ele>22.25</ele>
        <time>2026-05-01T13:20:54Z</time>
      </trkpt>
      <trkpt lat="43.76861" lon="-1.04605">
        <ele>22.25</ele>
        <time>2026-05-01T13:21:00Z</time>
      </trkpt>
      <trkpt lat="43.76853" lon="-1.04612">
        <ele>21.29</ele>
        <time>2026-05-01T13:21:07Z</time>
      </trkpt>
      <trkpt lat="43.76832" lon="-1.04624">
        <ele>20.81</ele>
        <time>2026-05-01T13:21:26Z</time>
      </trkpt>
      <trkpt lat="43.76809" lon="-1.04636">
        <ele>20.81</ele>
        <time>2026-05-01T13:21:47Z</time>
      </trkpt>
      <trkpt lat="43.7679" lon="-1.04646">
        <ele>21.77</ele>
        <time>2026-05-01T13:22:07Z</time>
      </trkpt>
      <trkpt lat="43.76772" lon="-1.04654">
        <ele>21.77</ele>
        <time>2026-05-01T13:22:24Z</time>
      </trkpt>
      <trkpt lat="43.76753" lon="-1.04664">
        <ele>22.25</ele>
        <time>2026-05-01T13:22:42Z</time>
      </trkpt>
      <trkpt lat="43.76738" lon="-1.04665">
        <ele>21.77</ele>
        <time>2026-05-01T13:22:56Z</time>
      </trkpt>
      <trkpt lat="43.76716" lon="-1.04669">
        <ele>21.77</ele>
        <time>2026-05-01T13:23:14Z</time>
      </trkpt>
      <trkpt lat="43.76696" lon="-1.04666">
        <ele>21.77</ele>
        <time>2026-05-01T13:23:33Z</time>
      </trkpt>
      <trkpt lat="43.76688" lon="-1.04669">
        <ele>21.77</ele>
        <time>2026-05-01T13:23:40Z</time>
      </trkpt>
      <trkpt lat="43.76669" lon="-1.04681">
        <ele>21.77</ele>
        <time>2026-05-01T13:23:58Z</time>
      </trkpt>
      <trkpt lat="43.76648" lon="-1.04682">
        <ele>21.77</ele>
        <time>2026-05-01T13:24:16Z</time>
      </trkpt>
      <trkpt lat="43.76639" lon="-1.04682">
        <ele>21.77</ele>
        <time>2026-05-01T13:24:24Z</time>
      </trkpt>
      <trkpt lat="43.76614" lon="-1.04678">
        <ele>20.81</ele>
        <time>2026-05-01T13:24:44Z</time>
      </trkpt>
      <trkpt lat="43.76595" lon="-1.04677">
        <ele>20.32</ele>
        <time>2026-05-01T13:25:03Z</time>
      </trkpt>
      <trkpt lat="43.76574" lon="-1.04681">
        <ele>19.84</ele>
        <time>2026-05-01T13:25:21Z</time>
      </trkpt>
      <trkpt lat="43.76568" lon="-1.04684">
        <ele>18.88</ele>
        <time>2026-05-01T13:25:27Z</time>
      </trkpt>
      <trkpt lat="43.76555" lon="-1.04684">
        <ele>17.92</ele>
        <time>2026-05-01T13:25:38Z</time>
      </trkpt>
      <trkpt lat="43.76544" lon="-1.04695">
        <ele>17.92</ele>
        <time>2026-05-01T13:25:54Z</time>
      </trkpt>
      <trkpt lat="43.76535" lon="-1.04708">
        <ele>17.92</ele>
        <time>2026-05-01T13:26:09Z</time>
      </trkpt>
      <trkpt lat="43.76523" lon="-1.04719">
        <ele>17.44</ele>
        <time>2026-05-01T13:26:27Z</time>
      </trkpt>
      <trkpt lat="43.76511" lon="-1.04734">
        <ele>17.44</ele>
        <time>2026-05-01T13:26:46Z</time>
      </trkpt>
      <trkpt lat="43.76497" lon="-1.04747">
        <ele>18.4</ele>
        <time>2026-05-01T13:27:05Z</time>
      </trkpt>
      <trkpt lat="43.76494" lon="-1.04752">
        <ele>18.4</ele>
        <time>2026-05-01T13:27:10Z</time>
      </trkpt>
      <trkpt lat="43.76482" lon="-1.04773">
        <ele>18.88</ele>
        <time>2026-05-01T13:27:29Z</time>
      </trkpt>
      <trkpt lat="43.76473" lon="-1.04792">
        <ele>18.88</ele>
        <time>2026-05-01T13:27:49Z</time>
      </trkpt>
      <trkpt lat="43.7647" lon="-1.04805">
        <ele>18.4</ele>
        <time>2026-05-01T13:28:05Z</time>
      </trkpt>
      <trkpt lat="43.76482" lon="-1.04821">
        <ele>17.44</ele>
        <time>2026-05-01T13:28:23Z</time>
      </trkpt>
      <trkpt lat="43.76475" lon="-1.04829">
        <ele>17.44</ele>
        <time>2026-05-01T13:28:38Z</time>
      </trkpt>
      <trkpt lat="43.76461" lon="-1.04847">
        <ele>16.96</ele>
        <time>2026-05-01T13:28:56Z</time>
      </trkpt>
      <trkpt lat="43.76459" lon="-1.04856">
        <ele>16.96</ele>
        <time>2026-05-01T13:29:13Z</time>
      </trkpt>
      <trkpt lat="43.76451" lon="-1.04861">
        <ele>16.48</ele>
        <time>2026-05-01T13:29:30Z</time>
      </trkpt>
      <trkpt lat="43.76433" lon="-1.04864">
        <ele>16.48</ele>
        <time>2026-05-01T13:29:52Z</time>
      </trkpt>
      <trkpt lat="43.76415" lon="-1.04866">
        <ele>16.48</ele>
        <time>2026-05-01T13:30:08Z</time>
      </trkpt>
      <trkpt lat="43.76411" lon="-1.04867">
        <ele>17.92</ele>
        <time>2026-05-01T13:30:12Z</time>
      </trkpt>
      <trkpt lat="43.76399" lon="-1.04872">
        <ele>17.92</ele>
        <time>2026-05-01T13:30:22Z</time>
      </trkpt>
      <trkpt lat="43.76378" lon="-1.04875">
        <ele>18.4</ele>
        <time>2026-05-01T13:30:40Z</time>
      </trkpt>
      <trkpt lat="43.7636" lon="-1.0488">
        <ele>18.88</ele>
        <time>2026-05-01T13:30:57Z</time>
      </trkpt>
      <trkpt lat="43.76342" lon="-1.04883">
        <ele>18.88</ele>
        <time>2026-05-01T13:31:13Z</time>
      </trkpt>
      <trkpt lat="43.76325" lon="-1.04886">
        <ele>18.88</ele>
        <time>2026-05-01T13:31:31Z</time>
      </trkpt>
      <trkpt lat="43.76307" lon="-1.04887">
        <ele>19.36</ele>
        <time>2026-05-01T13:31:48Z</time>
      </trkpt>
      <trkpt lat="43.7629" lon="-1.0489">
        <ele>19.84</ele>
        <time>2026-05-01T13:32:05Z</time>
      </trkpt>
      <trkpt lat="43.76272" lon="-1.04895">
        <ele>19.36</ele>
        <time>2026-05-01T13:32:22Z</time>
      </trkpt>
      <trkpt lat="43.76252" lon="-1.04899">
        <ele>19.84</ele>
        <time>2026-05-01T13:32:41Z</time>
      </trkpt>
      <trkpt lat="43.76232" lon="-1.04898">
        <ele>19.84</ele>
        <time>2026-05-01T13:32:59Z</time>
      </trkpt>
      <trkpt lat="43.76212" lon="-1.04897">
        <ele>19.84</ele>
        <time>2026-05-01T13:33:18Z</time>
      </trkpt>
      <trkpt lat="43.76189" lon="-1.04898">
        <ele>19.84</ele>
        <time>2026-05-01T13:33:37Z</time>
      </trkpt>
      <trkpt lat="43.7617" lon="-1.04897">
        <ele>20.32</ele>
        <time>2026-05-01T13:33:55Z</time>
      </trkpt>
      <trkpt lat="43.76152" lon="-1.04896">
        <ele>20.32</ele>
        <time>2026-05-01T13:34:11Z</time>
      </trkpt>
      <trkpt lat="43.76132" lon="-1.04896">
        <ele>20.81</ele>
        <time>2026-05-01T13:34:31Z</time>
      </trkpt>
      <trkpt lat="43.76111" lon="-1.04895">
        <ele>21.29</ele>
        <time>2026-05-01T13:34:50Z</time>
      </trkpt>
      <trkpt lat="43.76102" lon="-1.04896">
        <ele>21.29</ele>
        <time>2026-05-01T13:34:59Z</time>
      </trkpt>
      <trkpt lat="43.76081" lon="-1.04895">
        <ele>21.29</ele>
        <time>2026-05-01T13:35:18Z</time>
      </trkpt>
      <trkpt lat="43.7607" lon="-1.04894">
        <ele>20.32</ele>
        <time>2026-05-01T13:35:35Z</time>
      </trkpt>
      <trkpt lat="43.76046" lon="-1.04893">
        <ele>19.84</ele>
        <time>2026-05-01T13:35:54Z</time>
      </trkpt>
      <trkpt lat="43.76028" lon="-1.04893">
        <ele>19.84</ele>
        <time>2026-05-01T13:36:11Z</time>
      </trkpt>
      <trkpt lat="43.76007" lon="-1.04886">
        <ele>21.29</ele>
        <time>2026-05-01T13:36:31Z</time>
      </trkpt>
      <trkpt lat="43.75995" lon="-1.04876">
        <ele>21.77</ele>
        <time>2026-05-01T13:36:50Z</time>
      </trkpt>
      <trkpt lat="43.7598" lon="-1.04869">
        <ele>22.25</ele>
        <time>2026-05-01T13:37:06Z</time>
      </trkpt>
      <trkpt lat="43.75964" lon="-1.04864">
        <ele>23.21</ele>
        <time>2026-05-01T13:37:25Z</time>
      </trkpt>
      <trkpt lat="43.75943" lon="-1.04856">
        <ele>24.17</ele>
        <time>2026-05-01T13:37:45Z</time>
      </trkpt>
      <trkpt lat="43.75924" lon="-1.04849">
        <ele>24.17</ele>
        <time>2026-05-01T13:38:03Z</time>
      </trkpt>
      <trkpt lat="43.75906" lon="-1.0484">
        <ele>24.17</ele>
        <time>2026-05-01T13:38:20Z</time>
      </trkpt>
      <trkpt lat="43.75884" lon="-1.04832">
        <ele>23.69</ele>
        <time>2026-05-01T13:38:41Z</time>
      </trkpt>
      <trkpt lat="43.75867" lon="-1.04825">
        <ele>23.69</ele>
        <time>2026-05-01T13:38:58Z</time>
      </trkpt>
      <trkpt lat="43.75848" lon="-1.04816">
        <ele>24.17</ele>
        <time>2026-05-01T13:39:17Z</time>
      </trkpt>
      <trkpt lat="43.75832" lon="-1.04808">
        <ele>24.17</ele>
        <time>2026-05-01T13:39:34Z</time>
      </trkpt>
      <trkpt lat="43.75816" lon="-1.04802">
        <ele>24.65</ele>
        <time>2026-05-01T13:39:50Z</time>
      </trkpt>
      <trkpt lat="43.75797" lon="-1.04797">
        <ele>25.13</ele>
        <time>2026-05-01T13:40:07Z</time>
      </trkpt>
      <trkpt lat="43.75775" lon="-1.04793">
        <ele>25.13</ele>
        <time>2026-05-01T13:40:26Z</time>
      </trkpt>
      <trkpt lat="43.75757" lon="-1.04788">
        <ele>25.13</ele>
        <time>2026-05-01T13:40:43Z</time>
      </trkpt>
      <trkpt lat="43.75738" lon="-1.04783">
        <ele>25.13</ele>
        <time>2026-05-01T13:41:00Z</time>
      </trkpt>
      <trkpt lat="43.75715" lon="-1.04784">
        <ele>24.17</ele>
        <time>2026-05-01T13:41:20Z</time>
      </trkpt>
      <trkpt lat="43.75704" lon="-1.04782">
        <ele>24.17</ele>
        <time>2026-05-01T13:41:37Z</time>
      </trkpt>
      <trkpt lat="43.75687" lon="-1.04783">
        <ele>23.69</ele>
        <time>2026-05-01T13:41:56Z</time>
      </trkpt>
      <trkpt lat="43.75667" lon="-1.04777">
        <ele>23.69</ele>
        <time>2026-05-01T13:42:15Z</time>
      </trkpt>
      <trkpt lat="43.75651" lon="-1.04774">
        <ele>23.21</ele>
        <time>2026-05-01T13:42:30Z</time>
      </trkpt>
      <trkpt lat="43.7563" lon="-1.04772">
        <ele>23.21</ele>
        <time>2026-05-01T13:42:48Z</time>
      </trkpt>
      <trkpt lat="43.75614" lon="-1.04769">
        <ele>22.73</ele>
        <time>2026-05-01T13:43:03Z</time>
      </trkpt>
      <trkpt lat="43.75595" lon="-1.04767">
        <ele>22.73</ele>
        <time>2026-05-01T13:43:21Z</time>
      </trkpt>
      <trkpt lat="43.75585" lon="-1.04766">
        <ele>22.73</ele>
        <time>2026-05-01T13:43:30Z</time>
      </trkpt>
      <trkpt lat="43.75575" lon="-1.04764">
        <ele>22.73</ele>
        <time>2026-05-01T13:43:40Z</time>
      </trkpt>
      <trkpt lat="43.75571" lon="-1.04763">
        <ele>22.73</ele>
        <time>2026-05-01T13:43:44Z</time>
      </trkpt>
      <trkpt lat="43.75559" lon="-1.0476">
        <ele>22.73</ele>
        <time>2026-05-01T13:43:55Z</time>
      </trkpt>
      <trkpt lat="43.7555" lon="-1.04758">
        <ele>22.73</ele>
        <time>2026-05-01T13:44:03Z</time>
      </trkpt>
      <trkpt lat="43.75533" lon="-1.0476">
        <ele>22.73</ele>
        <time>2026-05-01T13:44:19Z</time>
      </trkpt>
      <trkpt lat="43.75516" lon="-1.04759">
        <ele>22.73</ele>
        <time>2026-05-01T13:44:35Z</time>
      </trkpt>
      <trkpt lat="43.75503" lon="-1.04758">
        <ele>22.73</ele>
        <time>2026-05-01T13:44:47Z</time>
      </trkpt>
      <trkpt lat="43.75482" lon="-1.04755">
        <ele>22.73</ele>
        <time>2026-05-01T13:45:06Z</time>
      </trkpt>
      <trkpt lat="43.75465" lon="-1.0475">
        <ele>22.73</ele>
        <time>2026-05-01T13:45:22Z</time>
      </trkpt>
      <trkpt lat="43.75446" lon="-1.04747">
        <ele>22.73</ele>
        <time>2026-05-01T13:45:40Z</time>
      </trkpt>
      <trkpt lat="43.75426" lon="-1.04745">
        <ele>22.73</ele>
        <time>2026-05-01T13:45:58Z</time>
      </trkpt>
      <trkpt lat="43.7541" lon="-1.04744">
        <ele>22.73</ele>
        <time>2026-05-01T13:46:12Z</time>
      </trkpt>
      <trkpt lat="43.75388" lon="-1.04741">
        <ele>21.77</ele>
        <time>2026-05-01T13:46:31Z</time>
      </trkpt>
      <trkpt lat="43.75375" lon="-1.04737">
        <ele>21.77</ele>
        <time>2026-05-01T13:46:43Z</time>
      </trkpt>
      <trkpt lat="43.75371" lon="-1.04737">
        <ele>21.77</ele>
        <time>2026-05-01T13:46:47Z</time>
      </trkpt>
      <trkpt lat="43.7535" lon="-1.04724">
        <ele>21.77</ele>
        <time>2026-05-01T13:47:07Z</time>
      </trkpt>
      <trkpt lat="43.75332" lon="-1.04714">
        <ele>21.77</ele>
        <time>2026-05-01T13:47:24Z</time>
      </trkpt>
      <trkpt lat="43.75312" lon="-1.047">
        <ele>21.77</ele>
        <time>2026-05-01T13:47:43Z</time>
      </trkpt>
      <trkpt lat="43.75295" lon="-1.04693">
        <ele>21.77</ele>
        <time>2026-05-01T13:47:59Z</time>
      </trkpt>
      <trkpt lat="43.75279" lon="-1.04683">
        <ele>21.29</ele>
        <time>2026-05-01T13:48:16Z</time>
      </trkpt>
      <trkpt lat="43.75259" lon="-1.04673">
        <ele>21.29</ele>
        <time>2026-05-01T13:48:34Z</time>
      </trkpt>
      <trkpt lat="43.75251" lon="-1.04666">
        <ele>21.29</ele>
        <time>2026-05-01T13:48:42Z</time>
      </trkpt>
      <trkpt lat="43.75234" lon="-1.04655">
        <ele>21.29</ele>
        <time>2026-05-01T13:48:58Z</time>
      </trkpt>
      <trkpt lat="43.75215" lon="-1.04645">
        <ele>20.81</ele>
        <time>2026-05-01T13:49:17Z</time>
      </trkpt>
      <trkpt lat="43.75196" lon="-1.04638">
        <ele>20.81</ele>
        <time>2026-05-01T13:49:35Z</time>
      </trkpt>
      <trkpt lat="43.7519" lon="-1.0463">
        <ele>20.81</ele>
        <time>2026-05-01T13:49:52Z</time>
      </trkpt>
      <trkpt lat="43.75186" lon="-1.04634">
        <ele>20.81</ele>
        <time>2026-05-01T13:50:21Z</time>
      </trkpt>
      <trkpt lat="43.7519" lon="-1.0463">
        <ele>20.81</ele>
        <time>2026-05-01T13:50:49Z</time>
      </trkpt>
      <trkpt lat="43.75191" lon="-1.04633">
        <ele>20.32</ele>
        <time>2026-05-01T13:51:25Z</time>
      </trkpt>
      <trkpt lat="43.7519" lon="-1.04631">
        <ele>20.32</ele>
        <time>2026-05-01T13:51:48Z</time>
      </trkpt>
      <trkpt lat="43.75189" lon="-1.04628">
        <ele>20.32</ele>
        <time>2026-05-01T13:52:05Z</time>
      </trkpt>
      <trkpt lat="43.7519" lon="-1.04629">
        <ele>20.32</ele>
        <time>2026-05-01T13:52:29Z</time>
      </trkpt>
      <trkpt lat="43.75188" lon="-1.04625">
        <ele>20.32</ele>
        <time>2026-05-01T13:52:44Z</time>
      </trkpt>
      <trkpt lat="43.75192" lon="-1.04627">
        <ele>20.32</ele>
        <time>2026-05-01T13:53:11Z</time>
      </trkpt>
      <trkpt lat="43.75187" lon="-1.04623">
        <ele>20.32</ele>
        <time>2026-05-01T13:53:33Z</time>
      </trkpt>
      <trkpt lat="43.75188" lon="-1.04625">
        <ele>20.32</ele>
        <time>2026-05-01T13:53:58Z</time>
      </trkpt>
      <trkpt lat="43.75178" lon="-1.04628">
        <ele>20.32</ele>
        <time>2026-05-01T13:54:07Z</time>
      </trkpt>
      <trkpt lat="43.75151" lon="-1.04629">
        <ele>22.73</ele>
        <time>2026-05-01T13:54:14Z</time>
      </trkpt>
      <trkpt lat="43.75121" lon="-1.04636">
        <ele>21.29</ele>
        <time>2026-05-01T13:54:19Z</time>
      </trkpt>
      <trkpt lat="43.74973" lon="-1.04682">
        <ele>20.32</ele>
        <time>2026-05-01T13:54:31Z</time>
      </trkpt>
      <trkpt lat="43.74742" lon="-1.04745">
        <ele>20.32</ele>
        <time>2026-05-01T13:54:52Z</time>
      </trkpt>
      <trkpt lat="43.74628" lon="-1.04778">
        <ele>18.4</ele>
        <time>2026-05-01T13:55:05Z</time>
      </trkpt>
      <trkpt lat="43.74548" lon="-1.04799">
        <ele>18.4</ele>
        <time>2026-05-01T13:55:18Z</time>
      </trkpt>
      <trkpt lat="43.74531" lon="-1.04812">
        <ele>17.44</ele>
        <time>2026-05-01T13:55:28Z</time>
      </trkpt>
      <trkpt lat="43.74531" lon="-1.04813">
        <ele>17.44</ele>
        <time>2026-05-01T13:55:29Z</time>
      </trkpt>
      <trkpt lat="43.74532" lon="-1.04861">
        <ele>17.44</ele>
        <time>2026-05-01T13:55:41Z</time>
      </trkpt>
      <trkpt lat="43.74531" lon="-1.04895">
        <ele>17.44</ele>
        <time>2026-05-01T13:55:56Z</time>
      </trkpt>
      <trkpt lat="43.74535" lon="-1.0489">
        <ele>17.44</ele>
        <time>2026-05-01T13:56:24Z</time>
      </trkpt>
      <trkpt lat="43.74541" lon="-1.04888">
        <ele>17.44</ele>
        <time>2026-05-01T13:56:43Z</time>
      </trkpt>
      <trkpt lat="43.74538" lon="-1.04891">
        <ele>16.96</ele>
        <time>2026-05-01T13:57:11Z</time>
      </trkpt>
      <trkpt lat="43.7454" lon="-1.04887">
        <ele>16.96</ele>
        <time>2026-05-01T13:57:35Z</time>
      </trkpt>
      <trkpt lat="43.74538" lon="-1.04889">
        <ele>16.96</ele>
        <time>2026-05-01T13:57:58Z</time>
      </trkpt>
      <trkpt lat="43.74539" lon="-1.04889">
        <ele>18.4</ele>
        <time>2026-05-01T13:58:00Z</time>
      </trkpt>
      <trkpt lat="43.74536" lon="-1.04889">
        <ele>18.4</ele>
        <time>2026-05-01T13:58:11Z</time>
      </trkpt>
      <trkpt lat="43.74541" lon="-1.04889">
        <ele>17.44</ele>
        <time>2026-05-01T13:58:33Z</time>
      </trkpt>
      <trkpt lat="43.7454" lon="-1.04889">
        <ele>17.44</ele>
        <time>2026-05-01T13:59:11Z</time>
      </trkpt>
      <trkpt lat="43.7454" lon="-1.04888">
        <ele>17.44</ele>
        <time>2026-05-01T13:59:46Z</time>
      </trkpt>
      <trkpt lat="43.74542" lon="-1.0489">
        <ele>17.44</ele>
        <time>2026-05-01T13:59:58Z</time>
      </trkpt>
      <trkpt lat="43.74545" lon="-1.04949">
        <ele>18.88</ele>
        <time>2026-05-01T14:00:10Z</time>
      </trkpt>
      <trkpt lat="43.7455" lon="-1.05103">
        <ele>20.32</ele>
        <time>2026-05-01T14:00:22Z</time>
      </trkpt>
      <trkpt lat="43.74548" lon="-1.05262">
        <ele>20.32</ele>
        <time>2026-05-01T14:00:33Z</time>
      </trkpt>
      <trkpt lat="43.74549" lon="-1.05497">
        <ele>20.81</ele>
        <time>2026-05-01T14:00:52Z</time>
      </trkpt>
      <trkpt lat="43.74551" lon="-1.05516">
        <ele>20.81</ele>
        <time>2026-05-01T14:00:59Z</time>
      </trkpt>
      <trkpt lat="43.7455" lon="-1.05515">
        <ele>20.81</ele>
        <time>2026-05-01T14:01:07Z</time>
      </trkpt>
      <trkpt lat="43.74546" lon="-1.05529">
        <ele>22.25</ele>
        <time>2026-05-01T14:01:13Z</time>
      </trkpt>
      <trkpt lat="43.74516" lon="-1.05565">
        <ele>22.73</ele>
        <time>2026-05-01T14:01:21Z</time>
      </trkpt>
      <trkpt lat="43.74504" lon="-1.05557">
        <ele>22.73</ele>
        <time>2026-05-01T14:01:23Z</time>
      </trkpt>
      <trkpt lat="43.74488" lon="-1.05539">
        <ele>23.21</ele>
        <time>2026-05-01T14:01:26Z</time>
      </trkpt>
      <trkpt lat="43.74441" lon="-1.05517">
        <ele>23.21</ele>
        <time>2026-05-01T14:01:34Z</time>
      </trkpt>
      <trkpt lat="43.74426" lon="-1.05515">
        <ele>23.21</ele>
        <time>2026-05-01T14:01:37Z</time>
      </trkpt>
      <trkpt lat="43.74414" lon="-1.05513">
        <ele>23.21</ele>
        <time>2026-05-01T14:01:39Z</time>
      </trkpt>
      <trkpt lat="43.74342" lon="-1.05473">
        <ele>23.21</ele>
        <time>2026-05-01T14:01:48Z</time>
      </trkpt>
      <trkpt lat="43.74179" lon="-1.05403">
        <ele>22.25</ele>
        <time>2026-05-01T14:02:04Z</time>
      </trkpt>
      <trkpt lat="43.73994" lon="-1.05322">
        <ele>22.73</ele>
        <time>2026-05-01T14:02:23Z</time>
      </trkpt>
      <trkpt lat="43.73973" lon="-1.05313">
        <ele>21.29</ele>
        <time>2026-05-01T14:02:25Z</time>
      </trkpt>
      <trkpt lat="43.73804" lon="-1.05241">
        <ele>22.73</ele>
        <time>2026-05-01T14:02:42Z</time>
      </trkpt>
      <trkpt lat="43.73733" lon="-1.05168">
        <ele>22.25</ele>
        <time>2026-05-01T14:02:51Z</time>
      </trkpt>
      <trkpt lat="43.73713" lon="-1.05143">
        <ele>22.25</ele>
        <time>2026-05-01T14:02:54Z</time>
      </trkpt>
      <trkpt lat="43.73687" lon="-1.05123">
        <ele>20.81</ele>
        <time>2026-05-01T14:02:58Z</time>
      </trkpt>
      <trkpt lat="43.73653" lon="-1.05114">
        <ele>19.84</ele>
        <time>2026-05-01T14:03:07Z</time>
      </trkpt>
      <trkpt lat="43.73651" lon="-1.05119">
        <ele>19.84</ele>
        <time>2026-05-01T14:03:08Z</time>
      </trkpt>
      <trkpt lat="43.73638" lon="-1.0518">
        <ele>20.81</ele>
        <time>2026-05-01T14:03:18Z</time>
      </trkpt>
      <trkpt lat="43.73586" lon="-1.05304">
        <ele>22.25</ele>
        <time>2026-05-01T14:03:32Z</time>
      </trkpt>
      <trkpt lat="43.7358" lon="-1.05318">
        <ele>20.81</ele>
        <time>2026-05-01T14:03:34Z</time>
      </trkpt>
      <trkpt lat="43.73572" lon="-1.05335">
        <ele>20.32</ele>
        <time>2026-05-01T14:03:38Z</time>
      </trkpt>
      <trkpt lat="43.73558" lon="-1.05332">
        <ele>20.32</ele>
        <time>2026-05-01T14:03:42Z</time>
      </trkpt>
      <trkpt lat="43.73466" lon="-1.05269">
        <ele>19.36</ele>
        <time>2026-05-01T14:03:56Z</time>
      </trkpt>
      <trkpt lat="43.7338" lon="-1.05215">
        <ele>18.88</ele>
        <time>2026-05-01T14:04:10Z</time>
      </trkpt>
      <trkpt lat="43.73346" lon="-1.05193">
        <ele>17.92</ele>
        <time>2026-05-01T14:04:19Z</time>
      </trkpt>
      <trkpt lat="43.73323" lon="-1.05177">
        <ele>17.92</ele>
        <time>2026-05-01T14:04:28Z</time>
      </trkpt>
      <trkpt lat="43.7331" lon="-1.05168">
        <ele>17.92</ele>
        <time>2026-05-01T14:04:40Z</time>
      </trkpt>
      <trkpt lat="43.73303" lon="-1.05164">
        <ele>17.92</ele>
        <time>2026-05-01T14:04:59Z</time>
      </trkpt>
      <trkpt lat="43.73303" lon="-1.05164">
        <ele>17.92</ele>
        <time>2026-05-01T14:05:26Z</time>
      </trkpt>
      <trkpt lat="43.73305" lon="-1.05165">
        <ele>17.92</ele>
        <time>2026-05-01T14:05:45Z</time>
      </trkpt>
      <trkpt lat="43.73304" lon="-1.05167">
        <ele>17.44</ele>
        <time>2026-05-01T14:06:16Z</time>
      </trkpt>
      <trkpt lat="43.73304" lon="-1.05167">
        <ele>17.44</ele>
        <time>2026-05-01T14:06:51Z</time>
      </trkpt>
      <trkpt lat="43.73305" lon="-1.05165">
        <ele>17.44</ele>
        <time>2026-05-01T14:07:26Z</time>
      </trkpt>
      <trkpt lat="43.73285" lon="-1.05145">
        <ele>17.44</ele>
        <time>2026-05-01T14:07:35Z</time>
      </trkpt>
      <trkpt lat="43.73269" lon="-1.0513">
        <ele>18.88</ele>
        <time>2026-05-01T14:07:38Z</time>
      </trkpt>
      <trkpt lat="43.73199" lon="-1.05053">
        <ele>19.36</ele>
        <time>2026-05-01T14:07:53Z</time>
      </trkpt>
      <trkpt lat="43.73181" lon="-1.05037">
        <ele>19.36</ele>
        <time>2026-05-01T14:07:57Z</time>
      </trkpt>
      <trkpt lat="43.73153" lon="-1.05031">
        <ele>17.92</ele>
        <time>2026-05-01T14:08:02Z</time>
      </trkpt>
      <trkpt lat="43.73098" lon="-1.05045">
        <ele>19.84</ele>
        <time>2026-05-01T14:08:13Z</time>
      </trkpt>
      <trkpt lat="43.73073" lon="-1.05052">
        <ele>20.32</ele>
        <time>2026-05-01T14:08:23Z</time>
      </trkpt>
      <trkpt lat="43.73018" lon="-1.05055">
        <ele>23.21</ele>
        <time>2026-05-01T14:08:32Z</time>
      </trkpt>
      <trkpt lat="43.72941" lon="-1.05068">
        <ele>24.17</ele>
        <time>2026-05-01T14:08:43Z</time>
      </trkpt>
      <trkpt lat="43.72929" lon="-1.0507">
        <ele>22.73</ele>
        <time>2026-05-01T14:08:47Z</time>
      </trkpt>
      <trkpt lat="43.72924" lon="-1.05072">
        <ele>22.73</ele>
        <time>2026-05-01T14:08:51Z</time>
      </trkpt>
      <trkpt lat="43.72923" lon="-1.05074">
        <ele>22.73</ele>
        <time>2026-05-01T14:08:53Z</time>
      </trkpt>
      <trkpt lat="43.7293" lon="-1.05135">
        <ele>22.73</ele>
        <time>2026-05-01T14:09:03Z</time>
      </trkpt>
      <trkpt lat="43.72931" lon="-1.05143">
        <ele>22.73</ele>
        <time>2026-05-01T14:09:04Z</time>
      </trkpt>
      <trkpt lat="43.7293" lon="-1.05178">
        <ele>22.73</ele>
        <time>2026-05-01T14:09:10Z</time>
      </trkpt>
      <trkpt lat="43.72898" lon="-1.05174">
        <ele>22.73</ele>
        <time>2026-05-01T14:09:17Z</time>
      </trkpt>
      <trkpt lat="43.72859" lon="-1.05175">
        <ele>22.73</ele>
        <time>2026-05-01T14:09:22Z</time>
      </trkpt>
      <trkpt lat="43.72822" lon="-1.0519">
        <ele>20.81</ele>
        <time>2026-05-01T14:09:27Z</time>
      </trkpt>
      <trkpt lat="43.72772" lon="-1.05238">
        <ele>18.4</ele>
        <time>2026-05-01T14:09:39Z</time>
      </trkpt>
      <trkpt lat="43.72772" lon="-1.0524">
        <ele>18.4</ele>
        <time>2026-05-01T14:09:44Z</time>
      </trkpt>
      <trkpt lat="43.72764" lon="-1.05246">
        <ele>20.81</ele>
        <time>2026-05-01T14:09:55Z</time>
      </trkpt>
      <trkpt lat="43.7275" lon="-1.05255">
        <ele>21.29</ele>
        <time>2026-05-01T14:09:57Z</time>
      </trkpt>
      <trkpt lat="43.72736" lon="-1.05258">
        <ele>21.77</ele>
        <time>2026-05-01T14:10:00Z</time>
      </trkpt>
      <trkpt lat="43.72725" lon="-1.0526">
        <ele>22.25</ele>
        <time>2026-05-01T14:10:08Z</time>
      </trkpt>
      <trkpt lat="43.72713" lon="-1.05262">
        <ele>22.25</ele>
        <time>2026-05-01T14:10:10Z</time>
      </trkpt>
      <trkpt lat="43.72695" lon="-1.05265">
        <ele>22.25</ele>
        <time>2026-05-01T14:10:20Z</time>
      </trkpt>
      <trkpt lat="43.72679" lon="-1.05267">
        <ele>20.81</ele>
        <time>2026-05-01T14:10:23Z</time>
      </trkpt>
      <trkpt lat="43.72663" lon="-1.05269">
        <ele>20.32</ele>
        <time>2026-05-01T14:10:34Z</time>
      </trkpt>
      <trkpt lat="43.72641" lon="-1.05273">
        <ele>22.25</ele>
        <time>2026-05-01T14:10:39Z</time>
      </trkpt>
      <trkpt lat="43.72622" lon="-1.05276">
        <ele>20.81</ele>
        <time>2026-05-01T14:10:44Z</time>
      </trkpt>
      <trkpt lat="43.72604" lon="-1.05279">
        <ele>18.88</ele>
        <time>2026-05-01T14:10:54Z</time>
      </trkpt>
      <trkpt lat="43.72584" lon="-1.0528">
        <ele>18.88</ele>
        <time>2026-05-01T14:10:58Z</time>
      </trkpt>
      <trkpt lat="43.72564" lon="-1.05283">
        <ele>18.4</ele>
        <time>2026-05-01T14:11:08Z</time>
      </trkpt>
      <trkpt lat="43.72543" lon="-1.05289">
        <ele>15.52</ele>
        <time>2026-05-01T14:11:18Z</time>
      </trkpt>
      <trkpt lat="43.72542" lon="-1.05288">
        <ele>16</ele>
        <time>2026-05-01T14:11:19Z</time>
      </trkpt>
      <trkpt lat="43.72527" lon="-1.05288">
        <ele>16.96</ele>
        <time>2026-05-01T14:11:27Z</time>
      </trkpt>
      <trkpt lat="43.72511" lon="-1.0529">
        <ele>16.96</ele>
        <time>2026-05-01T14:11:28Z</time>
      </trkpt>
      <trkpt lat="43.725" lon="-1.05291">
        <ele>16.96</ele>
        <time>2026-05-01T14:11:33Z</time>
      </trkpt>
      <trkpt lat="43.72481" lon="-1.05294">
        <ele>16</ele>
        <time>2026-05-01T14:11:46Z</time>
      </trkpt>
      <trkpt lat="43.72464" lon="-1.05298">
        <ele>15.04</ele>
        <time>2026-05-01T14:12:00Z</time>
      </trkpt>
      <trkpt lat="43.72452" lon="-1.05299">
        <ele>14.56</ele>
        <time>2026-05-01T14:12:06Z</time>
      </trkpt>
      <trkpt lat="43.72443" lon="-1.05301">
        <ele>15.52</ele>
        <time>2026-05-01T14:12:16Z</time>
      </trkpt>
      <trkpt lat="43.72429" lon="-1.05305">
        <ele>12.63</ele>
        <time>2026-05-01T14:12:27Z</time>
      </trkpt>
      <trkpt lat="43.72414" lon="-1.0531">
        <ele>12.63</ele>
        <time>2026-05-01T14:12:43Z</time>
      </trkpt>
      <trkpt lat="43.72405" lon="-1.05311">
        <ele>12.15</ele>
        <time>2026-05-01T14:12:58Z</time>
      </trkpt>
      <trkpt lat="43.72398" lon="-1.05315">
        <ele>12.15</ele>
        <time>2026-05-01T14:13:03Z</time>
      </trkpt>
      <trkpt lat="43.72394" lon="-1.05319">
        <ele>15.52</ele>
        <time>2026-05-01T14:13:48Z</time>
      </trkpt>
      <trkpt lat="43.72383" lon="-1.05323">
        <ele>16</ele>
        <time>2026-05-01T14:13:52Z</time>
      </trkpt>
      <trkpt lat="43.72372" lon="-1.05328">
        <ele>21.3</ele>
      </trkpt>
      <trkpt lat="43.72361" lon="-1.05332">
        <ele>21</ele>
      </trkpt>
      <trkpt lat="43.72355" lon="-1.05334">
        <ele>21</ele>
      </trkpt>
      <trkpt lat="43.72341" lon="-1.0534">
        <ele>21</ele>
      </trkpt>
      <trkpt lat="43.72332" lon="-1.05342">
        <ele>21</ele>
      </trkpt>
      <trkpt lat="43.72321" lon="-1.05348">
        <ele>20.8</ele>
      </trkpt>
      <trkpt lat="43.7231" lon="-1.05352">
        <ele>20.7</ele>
      </trkpt>
      <trkpt lat="43.72297" lon="-1.05359">
        <ele>16.48</ele>
        <time>2026-05-01T14:14:07Z</time>
      </trkpt>
      <trkpt lat="43.72277" lon="-1.05371">
        <ele>15.04</ele>
        <time>2026-05-01T14:14:12Z</time>
      </trkpt>
      <trkpt lat="43.72269" lon="-1.05375">
        <ele>20.6</ele>
      </trkpt>
      <trkpt lat="43.72267" lon="-1.05377">
        <ele>20.5</ele>
      </trkpt>
      <trkpt lat="43.72263" lon="-1.05383">
        <ele>20.6</ele>
      </trkpt>
      <trkpt lat="43.7226" lon="-1.05383">
        <ele>14.56</ele>
        <time>2026-05-01T14:14:23Z</time>
      </trkpt>
      <trkpt lat="43.72257" lon="-1.05383">
        <ele>14.56</ele>
        <time>2026-05-01T14:14:25Z</time>
      </trkpt>
      <trkpt lat="43.72254" lon="-1.05383">
        <ele>20.1</ele>
      </trkpt>
      <trkpt lat="43.72252" lon="-1.05387">
        <ele>20</ele>
      </trkpt>
      <trkpt lat="43.72251" lon="-1.05389">
        <ele>20.1</ele>
      </trkpt>
      <trkpt lat="43.7225" lon="-1.05391">
        <ele>20.1</ele>
      </trkpt>
      <trkpt lat="43.72249" lon="-1.05394">
        <ele>20</ele>
      </trkpt>
      <trkpt lat="43.72244" lon="-1.05395">
        <ele>19.6</ele>
      </trkpt>
      <trkpt lat="43.7224" lon="-1.05398">
        <ele>19.3</ele>
      </trkpt>
      <trkpt lat="43.72235" lon="-1.054">
        <ele>18.8</ele>
      </trkpt>
      <trkpt lat="43.72225" lon="-1.05407">
        <ele>18</ele>
      </trkpt>
      <trkpt lat="43.72217" lon="-1.05414">
        <ele>11.67</ele>
        <time>2026-05-01T14:14:37Z</time>
      </trkpt>
      <trkpt lat="43.72211" lon="-1.0542">
        <ele>10.71</ele>
        <time>2026-05-01T14:14:48Z</time>
      </trkpt>
      <trkpt lat="43.72204" lon="-1.05429">
        <ele>10.71</ele>
        <time>2026-05-01T14:14:50Z</time>
      </trkpt>
      <trkpt lat="43.72201" lon="-1.05434">
        <ele>9.75</ele>
        <time>2026-05-01T14:15:04Z</time>
      </trkpt>
      <trkpt lat="43.72196" lon="-1.05443">
        <ele>7.35</ele>
        <time>2026-05-01T14:15:16Z</time>
      </trkpt>
      <trkpt lat="43.72194" lon="-1.05448">
        <ele>15.1</ele>
      </trkpt>
      <trkpt lat="43.72189" lon="-1.05459">
        <ele>15</ele>
      </trkpt>
    </trkseg>
  </trk>
</gpx>